Wetterdaten: Donnerstag, 09.12.2021
Datum Zeit Temp. Aussen Temp. o. S. Temp +5cm Feuchte Auss Luftdruck Regen Sonnenschein Regendauer Solar Windben Empfang
09.12.2021 00:00 2,6 C 1,7 C -0,6 C 90 % 1002,8 hPa 0,0 l/m 0 min 0 min 0 W/m 6,4 km/h (2 Bft) 100,00 %
09.12.2021 00:02 2,6 C 1,7 C -0,6 C 90 % 1002,9 hPa 0,0 l/m 0 min 0 min 0 W/m 6,4 km/h (2 Bft) 100,00 %
09.12.2021 00:04 2,6 C 1,7 C -0,6 C 90 % 1002,9 hPa 0,0 l/m 0 min 0 min 0 W/m 3,2 km/h (1 Bft) 95,92 %
09.12.2021 00:08 2,5 C 1,7 C -0,6 C 90 % 1002,9 hPa 0,0 l/m 0 min 0 min 0 W/m 6,4 km/h (2 Bft) 98,94 %
09.12.2021 00:10 2,5 C 1,7 C -0,6 C 90 % 1002,8 hPa 0,0 l/m 0 min 0 min 0 W/m 6,4 km/h (2 Bft) 100,00 %
09.12.2021 00:12 2,5 C 1,7 C -0,6 C 90 % 1002,9 hPa 0,0 l/m 0 min 0 min 0 W/m 6,4 km/h (2 Bft) 97,87 %
09.12.2021 00:14 2,4 C 1,7 C -0,6 C 90 % 1002,9 hPa 0,0 l/m 0 min 0 min 0 W/m 6,4 km/h (2 Bft) 93,48 %
09.12.2021 00:16 2,4 C 1,7 C -0,6 C 90 % 1002,9 hPa 0,0 l/m 0 min 0 min 0 W/m 12,9 km/h (3 Bft) 97,87 %
09.12.2021 00:18 2,4 C 1,7 C -0,6 C 90 % 1002,9 hPa 0,0 l/m 0 min 0 min 0 W/m 12,9 km/h (3 Bft) 97,87 %
09.12.2021 00:20 2,4 C 1,7 C -0,6 C 90 % 1002,9 hPa 0,0 l/m 0 min 0 min 0 W/m 3,2 km/h (1 Bft) 97,87 %
09.12.2021 00:22 2,4 C 1,7 C -0,6 C 90 % 1002,9 hPa 0,0 l/m 0 min 0 min 0 W/m 6,4 km/h (2 Bft) 97,87 %
09.12.2021 00:24 2,3 C 1,7 C -0,6 C 90 % 1002,9 hPa 0,0 l/m 0 min 0 min 0 W/m 3,2 km/h (1 Bft) 95,74 %
09.12.2021 00:26 2,3 C 1,7 C -0,6 C 90 % 1002,9 hPa 0,0 l/m 0 min 0 min 0 W/m 6,4 km/h (2 Bft) 97,83 %
09.12.2021 00:28 2,3 C 1,7 C -0,6 C 90 % 1003,0 hPa 0,0 l/m 0 min 0 min 0 W/m 6,4 km/h (2 Bft) 97,87 %
09.12.2021 00:30 2,3 C 1,7 C -0,6 C 90 % 1003,0 hPa 0,0 l/m 0 min 0 min 0 W/m 3,2 km/h (1 Bft) 97,87 %
09.12.2021 00:32 2,3 C 1,7 C -0,6 C 90 % 1003,0 hPa 0,0 l/m 0 min 0 min 0 W/m 3,2 km/h (1 Bft) 97,87 %
09.12.2021 00:34 2,3 C 1,7 C -0,6 C 90 % 1003,0 hPa 0,0 l/m 0 min 0 min 0 W/m 6,4 km/h (2 Bft) 97,87 %
09.12.2021 00:36 2,3 C 1,7 C -0,6 C 90 % 1003,0 hPa 0,0 l/m 0 min 0 min 0 W/m 6,4 km/h (2 Bft) 97,87 %
09.12.2021 00:38 2,2 C 1,7 C -0,6 C 90 % 1003,0 hPa 0,0 l/m 0 min 0 min 0 W/m 6,4 km/h (2 Bft) 93,48 %
09.12.2021 00:40 2,2 C 1,7 C -0,6 C 90 % 1003,0 hPa 0,0 l/m 0 min 0 min 0 W/m 6,4 km/h (2 Bft) 95,74 %
09.12.2021 00:42 2,2 C 1,7 C -0,6 C 90 % 1003,0 hPa 0,0 l/m 0 min 0 min 0 W/m 6,4 km/h (2 Bft) 93,62 %
09.12.2021 00:44 2,2 C 1,7 C -0,6 C 90 % 1002,9 hPa 0,0 l/m 0 min 0 min 0 W/m 9,7 km/h (2 Bft) 97,87 %
09.12.2021 00:46 2,2 C 1,7 C -0,6 C 90 % 1002,9 hPa 0,0 l/m 0 min 0 min 0 W/m 6,4 km/h (2 Bft) 97,87 %
09.12.2021 00:48 2,2 C 1,7 C -0,6 C 91 % 1002,9 hPa 0,0 l/m 0 min 0 min 0 W/m 9,7 km/h (2 Bft) 95,65 %
09.12.2021 00:50 2,2 C 1,7 C -0,6 C 91 % 1002,9 hPa 0,0 l/m 0 min 0 min 0 W/m 6,4 km/h (2 Bft) 97,87 %
09.12.2021 00:52 2,1 C 1,7 C -0,6 C 91 % 1002,9 hPa 0,0 l/m 0 min 0 min 0 W/m 6,4 km/h (2 Bft) 95,74 %
09.12.2021 00:54 2,1 C 1,7 C -0,6 C 91 % 1002,9 hPa 0,0 l/m 0 min 0 min 0 W/m 3,2 km/h (1 Bft) 95,74 %
09.12.2021 00:56 2,1 C 1,7 C -0,6 C 91 % 1002,9 hPa 0,0 l/m 0 min 0 min 0 W/m 6,4 km/h (2 Bft) 95,74 %
09.12.2021 00:58 2,1 C 1,7 C -0,6 C 91 % 1002,9 hPa 0,0 l/m 0 min 0 min 0 W/m 6,4 km/h (2 Bft) 95,74 %
09.12.2021 01:00 2,1 C 1,7 C -0,6 C 91 % 1002,9 hPa 0,0 l/m 0 min 0 min 0 W/m 6,4 km/h (2 Bft) 91,49 %
09.12.2021 01:02 2,1 C 1,7 C -0,6 C 91 % 1002,9 hPa 0,0 l/m 0 min 0 min 0 W/m 6,4 km/h (2 Bft) 95,74 %
09.12.2021 01:04 2,1 C 1,7 C -0,6 C 91 % 1002,9 hPa 0,0 l/m 0 min 0 min 0 W/m 6,4 km/h (2 Bft) 95,74 %
09.12.2021 01:06 2,1 C 1,7 C -0,6 C 91 % 1003,0 hPa 0,0 l/m 0 min 0 min 0 W/m 12,9 km/h (3 Bft) 95,65 %
09.12.2021 01:08 2,0 C 1,7 C -0,6 C 91 % 1003,0 hPa 0,0 l/m 0 min 0 min 0 W/m 6,4 km/h (2 Bft) 95,74 %
09.12.2021 01:10 2,0 C 1,1 C -0,6 C 91 % 1003,0 hPa 0,0 l/m 0 min 0 min 0 W/m 6,4 km/h (2 Bft) 95,74 %
09.12.2021 01:12 2,0 C 1,7 C -0,6 C 91 % 1003,0 hPa 0,0 l/m 0 min 0 min 0 W/m 9,7 km/h (2 Bft) 95,74 %
09.12.2021 01:14 2,0 C 1,7 C -0,6 C 91 % 1002,9 hPa 0,0 l/m 0 min 0 min 0 W/m 6,4 km/h (2 Bft) 95,74 %
09.12.2021 01:16 2,0 C 1,7 C -0,6 C 91 % 1003,0 hPa 0,0 l/m 0 min 0 min 0 W/m 6,4 km/h (2 Bft) 95,65 %
09.12.2021 01:18 2,0 C 1,7 C -0,6 C 91 % 1003,0 hPa 0,0 l/m 0 min 0 min 0 W/m 6,4 km/h (2 Bft) 93,62 %
09.12.2021 01:20 2,0 C 1,7 C -0,6 C 91 % 1002,9 hPa 0,0 l/m 0 min 0 min 0 W/m 12,9 km/h (3 Bft) 95,74 %
09.12.2021 01:22 1,9 C 1,7 C -0,6 C 91 % 1003,0 hPa 0,0 l/m 0 min 0 min 0 W/m 9,7 km/h (2 Bft) 95,74 %
09.12.2021 01:24 2,0 C 1,7 C -0,6 C 91 % 1002,9 hPa 0,0 l/m 0 min 0 min 0 W/m 6,4 km/h (2 Bft) 95,74 %
09.12.2021 01:26 1,9 C 1,7 C -0,6 C 92 % 1002,9 hPa 0,0 l/m 0 min 0 min 0 W/m 6,4 km/h (2 Bft) 95,74 %
09.12.2021 01:28 2,0 C 1,7 C -0,6 C 92 % 1003,0 hPa 0,0 l/m 0 min 0 min 0 W/m 9,7 km/h (2 Bft) 95,65 %
09.12.2021 01:30 2,0 C 1,7 C -0,6 C 92 % 1002,9 hPa 0,0 l/m 0 min 0 min 0 W/m 9,7 km/h (2 Bft) 97,87 %
09.12.2021 01:32 2,0 C 1,7 C -0,6 C 92 % 1002,9 hPa 0,0 l/m 0 min 0 min 0 W/m 12,9 km/h (3 Bft) 97,87 %
09.12.2021 01:34 2,0 C 1,7 C -0,6 C 92 % 1002,9 hPa 0,0 l/m 0 min 0 min 0 W/m 6,4 km/h (2 Bft) 97,87 %
09.12.2021 01:36 2,0 C 1,7 C -0,6 C 92 % 1002,9 hPa 0,0 l/m 0 min 0 min 0 W/m 6,4 km/h (2 Bft) 97,87 %
09.12.2021 01:38 2,0 C 1,7 C -0,6 C 92 % 1002,9 hPa 0,0 l/m 0 min 0 min 0 W/m 6,4 km/h (2 Bft) 100,00 %
09.12.2021 01:40 2,0 C 1,7 C -0,6 C 92 % 1002,9 hPa 0,0 l/m 0 min 0 min 0 W/m 6,4 km/h (2 Bft) 97,83 %
09.12.2021 01:42 2,0 C 1,7 C -0,6 C 92 % 1002,9 hPa 0,0 l/m 0 min 0 min 0 W/m 6,4 km/h (2 Bft) 93,62 %
09.12.2021 01:44 2,0 C 1,7 C -0,6 C 92 % 1003,0 hPa 0,0 l/m 0 min 0 min 0 W/m 9,7 km/h (2 Bft) 100,00 %
09.12.2021 01:46 2,0 C 1,7 C -0,6 C 92 % 1002,9 hPa 0,0 l/m 0 min 0 min 0 W/m 6,4 km/h (2 Bft) 100,00 %
09.12.2021 01:48 2,0 C 1,7 C -0,6 C 92 % 1002,9 hPa 0,0 l/m 0 min 0 min 0 W/m 6,4 km/h (2 Bft) 100,00 %
09.12.2021 01:50 2,0 C 1,7 C -0,6 C 92 % 1003,0 hPa 0,0 l/m 0 min 0 min 0 W/m 9,7 km/h (2 Bft) 100,00 %
09.12.2021 01:52 2,0 C 1,7 C -0,6 C 92 % 1002,9 hPa 0,0 l/m 0 min 0 min 0 W/m 3,2 km/h (1 Bft) 97,83 %
09.12.2021 01:54 1,9 C 1,7 C -0,6 C 92 % 1002,9 hPa 0,0 l/m 0 min 0 min 0 W/m 6,4 km/h (2 Bft) 100,00 %
09.12.2021 01:56 1,9 C 1,1 C -0,6 C 92 % 1002,9 hPa 0,0 l/m 0 min 0 min 0 W/m 6,4 km/h (2 Bft) 100,00 %
09.12.2021 01:58 1,9 C 1,1 C -0,6 C 92 % 1002,9 hPa 0,0 l/m 0 min 0 min 0 W/m 6,4 km/h (2 Bft) 97,87 %
09.12.2021 02:00 1,9 C 1,1 C -0,6 C 92 % 1003,0 hPa 0,0 l/m 0 min 0 min 0 W/m 6,4 km/h (2 Bft) 97,87 %
09.12.2021 02:02 1,9 C 1,1 C -0,6 C 92 % 1002,9 hPa 0,0 l/m 0 min 0 min 0 W/m 6,4 km/h (2 Bft) 97,87 %
09.12.2021 02:04 1,9 C 1,1 C -0,6 C 92 % 1002,9 hPa 0,0 l/m 0 min 0 min 0 W/m 6,4 km/h (2 Bft) 97,83 %
09.12.2021 02:06 1,9 C 1,1 C -1,1 C 92 % 1003,0 hPa 0,0 l/m 0 min 0 min 0 W/m 6,4 km/h (2 Bft) 97,87 %
09.12.2021 02:08 1,9 C 1,1 C -0,6 C 92 % 1003,0 hPa 0,0 l/m 0 min 0 min 0 W/m 6,4 km/h (2 Bft) 95,74 %
09.12.2021 02:10 1,9 C 1,1 C -1,1 C 92 % 1002,9 hPa 0,0 l/m 0 min 0 min 0 W/m 6,4 km/h (2 Bft) 97,87 %
09.12.2021 02:12 1,9 C 1,1 C -1,1 C 92 % 1003,0 hPa 0,0 l/m 0 min 0 min 0 W/m 6,4 km/h (2 Bft) 97,87 %
09.12.2021 02:14 1,8 C 1,1 C -1,1 C 92 % 1003,0 hPa 0,0 l/m 0 min 0 min 0 W/m 6,4 km/h (2 Bft) 97,83 %
09.12.2021 02:16 1,8 C 1,1 C -1,1 C 92 % 1003,1 hPa 0,0 l/m 0 min 0 min 0 W/m 3,2 km/h (1 Bft) 97,87 %
09.12.2021 02:18 1,8 C 1,1 C -1,1 C 92 % 1003,1 hPa 0,0 l/m 0 min 0 min 0 W/m 6,4 km/h (2 Bft) 97,87 %
09.12.2021 02:20 1,8 C 1,1 C -1,1 C 92 % 1003,1 hPa 0,0 l/m 0 min 0 min 0 W/m 6,4 km/h (2 Bft) 97,87 %
09.12.2021 02:22 1,8 C 1,1 C -1,1 C 92 % 1003,1 hPa 0,0 l/m 0 min 0 min 0 W/m 12,9 km/h (3 Bft) 97,87 %
09.12.2021 02:24 1,8 C 1,1 C -1,1 C 92 % 1003,2 hPa 0,0 l/m 0 min 0 min 0 W/m 6,4 km/h (2 Bft) 97,87 %
09.12.2021 02:26 1,8 C 1,1 C -1,1 C 92 % 1003,2 hPa 0,0 l/m 0 min 0 min 0 W/m 3,2 km/h (1 Bft) 97,83 %
09.12.2021 02:28 1,7 C 1,1 C -1,1 C 92 % 1003,2 hPa 0,0 l/m 0 min 0 min 0 W/m 3,2 km/h (1 Bft) 100,00 %
09.12.2021 02:30 1,7 C 1,1 C -1,1 C 92 % 1003,2 hPa 0,0 l/m 0 min 0 min 0 W/m 6,4 km/h (2 Bft) 100,00 %
09.12.2021 02:32 1,7 C 1,1 C -1,1 C 92 % 1003,2 hPa 0,0 l/m 0 min 0 min 0 W/m 3,2 km/h (1 Bft) 100,00 %
09.12.2021 02:34 1,7 C 1,1 C -1,1 C 92 % 1003,2 hPa 0,0 l/m 0 min 0 min 0 W/m 6,4 km/h (2 Bft) 97,87 %
09.12.2021 02:36 1,7 C 1,1 C -1,1 C 92 % 1003,2 hPa 0,0 l/m 0 min 0 min 0 W/m 6,4 km/h (2 Bft) 100,00 %
09.12.2021 02:38 1,7 C 1,1 C -1,1 C 92 % 1003,3 hPa 0,0 l/m 0 min 0 min 0 W/m 6,4 km/h (2 Bft) 100,00 %
09.12.2021 02:40 1,7 C 1,1 C -1,1 C 92 % 1003,2 hPa 0,0 l/m 0 min 0 min 0 W/m 6,4 km/h (2 Bft) 100,00 %
09.12.2021 02:42 1,7 C 1,1 C -1,1 C 92 % 1003,3 hPa 0,0 l/m 0 min 0 min 0 W/m 6,4 km/h (2 Bft) 97,87 %
09.12.2021 02:44 1,6 C 1,1 C -1,1 C 92 % 1003,2 hPa 0,0 l/m 0 min 0 min 0 W/m 6,4 km/h (2 Bft) 100,00 %
09.12.2021 02:46 1,6 C 1,1 C -1,1 C 92 % 1003,3 hPa 0,0 l/m 0 min 0 min 0 W/m 6,4 km/h (2 Bft) 100,00 %
09.12.2021 02:48 1,6 C 1,1 C -1,1 C 92 % 1003,3 hPa 0,0 l/m 0 min 0 min 0 W/m 6,4 km/h (2 Bft) 100,00 %
09.12.2021 02:50 1,6 C 1,1 C -1,1 C 92 % 1003,3 hPa 0,0 l/m 0 min 0 min 0 W/m 6,4 km/h (2 Bft) 100,00 %
09.12.2021 02:52 1,6 C 1,1 C -1,1 C 92 % 1003,3 hPa 0,0 l/m 0 min 0 min 0 W/m 9,7 km/h (2 Bft) 100,00 %
09.12.2021 02:54 1,6 C 1,1 C -1,1 C 92 % 1003,3 hPa 0,0 l/m 0 min 0 min 0 W/m 6,4 km/h (2 Bft) 100,00 %
09.12.2021 02:56 1,6 C 1,1 C -1,1 C 92 % 1003,3 hPa 0,0 l/m 0 min 0 min 0 W/m 6,4 km/h (2 Bft) 95,74 %
09.12.2021 02:58 1,6 C 1,1 C -1,1 C 92 % 1003,3 hPa 0,0 l/m 0 min 0 min 0 W/m 6,4 km/h (2 Bft) 100,00 %
09.12.2021 03:00 1,6 C 1,1 C -1,1 C 92 % 1003,3 hPa 0,0 l/m 0 min 0 min 0 W/m 6,4 km/h (2 Bft) 100,00 %
09.12.2021 03:02 1,6 C 1,1 C -1,1 C 92 % 1003,3 hPa 0,0 l/m 0 min 0 min 0 W/m 6,4 km/h (2 Bft) 100,00 %
09.12.2021 03:04 1,6 C 1,1 C -1,1 C 92 % 1003,3 hPa 0,0 l/m 0 min 0 min 0 W/m 12,9 km/h (3 Bft) 97,87 %
09.12.2021 03:06 1,5 C 1,1 C -1,1 C 92 % 1003,3 hPa 0,0 l/m 0 min 0 min 0 W/m 6,4 km/h (2 Bft) 93,62 %
09.12.2021 03:08 1,5 C 1,1 C -1,1 C 92 % 1003,3 hPa 0,0 l/m 0 min 0 min 0 W/m 12,9 km/h (3 Bft) 95,74 %
09.12.2021 03:10 1,5 C 1,1 C -1,1 C 92 % 1003,3 hPa 0,0 l/m 0 min 0 min 0 W/m 6,4 km/h (2 Bft) 97,87 %
09.12.2021 03:12 1,5 C 1,1 C -1,1 C 92 % 1003,3 hPa 0,0 l/m 0 min 0 min 0 W/m 6,4 km/h (2 Bft) 95,65 %
09.12.2021 03:14 1,4 C 1,1 C -1,1 C 92 % 1003,3 hPa 0,0 l/m 0 min 0 min 0 W/m 6,4 km/h (2 Bft) 97,87 %
09.12.2021 03:16 1,4 C 1,1 C -1,1 C 92 % 1003,4 hPa 0,0 l/m 0 min 0 min 0 W/m 6,4 km/h (2 Bft) 95,74 %
09.12.2021 03:18 1,4 C 1,1 C -1,1 C 92 % 1003,4 hPa 0,0 l/m 0 min 0 min 0 W/m 12,9 km/h (3 Bft) 97,87 %
09.12.2021 03:20 1,4 C 1,1 C -1,1 C 92 % 1003,4 hPa 0,0 l/m 0 min 0 min 0 W/m 6,4 km/h (2 Bft) 97,87 %
09.12.2021 03:22 1,4 C 1,1 C -1,1 C 93 % 1003,4 hPa 0,0 l/m 0 min 0 min 0 W/m 12,9 km/h (3 Bft) 97,87 %
09.12.2021 03:24 1,4 C 1,1 C -1,1 C 93 % 1003,4 hPa 0,0 l/m 0 min 0 min 0 W/m 12,9 km/h (3 Bft) 97,87 %
09.12.2021 03:26 1,4 C 0,6 C -1,1 C 93 % 1003,4 hPa 0,0 l/m 0 min 0 min 0 W/m 6,4 km/h (2 Bft) 97,83 %
09.12.2021 03:28 1,4 C 0,6 C -1,1 C 92 % 1003,4 hPa 0,0 l/m 0 min 0 min 0 W/m 6,4 km/h (2 Bft) 97,87 %
09.12.2021 03:30 1,4 C 0,6 C -1,1 C 92 % 1003,4 hPa 0,0 l/m 0 min 0 min 0 W/m 6,4 km/h (2 Bft) 95,74 %
09.12.2021 03:32 1,4 C 0,6 C -1,1 C 93 % 1003,3 hPa 0,0 l/m 0 min 0 min 0 W/m 6,4 km/h (2 Bft) 100,00 %
09.12.2021 03:34 1,4 C 0,6 C -1,1 C 93 % 1003,4 hPa 0,0 l/m 0 min 0 min 0 W/m 6,4 km/h (2 Bft) 100,00 %
09.12.2021 03:36 1,4 C 0,6 C -1,1 C 93 % 1003,3 hPa 0,0 l/m 0 min 0 min 0 W/m 6,4 km/h (2 Bft) 100,00 %
09.12.2021 03:38 1,4 C 0,6 C -1,1 C 93 % 1003,4 hPa 0,0 l/m 0 min 0 min 0 W/m 9,7 km/h (2 Bft) 97,87 %
09.12.2021 03:40 1,3 C 1,1 C -1,1 C 93 % 1003,3 hPa 0,0 l/m 0 min 0 min 0 W/m 12,9 km/h (3 Bft) 95,74 %
09.12.2021 03:42 1,3 C 1,1 C -1,1 C 93 % 1003,4 hPa 0,0 l/m 0 min 0 min 0 W/m 6,4 km/h (2 Bft) 97,87 %
09.12.2021 03:44 1,3 C 1,1 C -1,1 C 93 % 1003,3 hPa 0,0 l/m 0 min 0 min 0 W/m 12,9 km/h (3 Bft) 97,87 %
09.12.2021 03:46 1,3 C 1,1 C -1,1 C 93 % 1003,3 hPa 0,0 l/m 0 min 0 min 0 W/m 6,4 km/h (2 Bft) 97,87 %
09.12.2021 03:48 1,3 C 1,1 C -1,1 C 93 % 1003,3 hPa 0,0 l/m 0 min 0 min 0 W/m 6,4 km/h (2 Bft) 97,83 %
09.12.2021 03:50 1,3 C 1,1 C -1,1 C 93 % 1003,4 hPa 0,0 l/m 0 min 0 min 0 W/m 6,4 km/h (2 Bft) 97,87 %
09.12.2021 03:52 1,3 C 0,6 C -1,1 C 93 % 1003,3 hPa 0,0 l/m 0 min 0 min 0 W/m 6,4 km/h (2 Bft) 97,87 %
09.12.2021 03:54 1,3 C 0,6 C -1,1 C 93 % 1003,3 hPa 0,0 l/m 0 min 0 min 0 W/m 6,4 km/h (2 Bft) 97,87 %
09.12.2021 03:56 1,3 C 0,6 C -1,1 C 93 % 1003,3 hPa 0,0 l/m 0 min 0 min 0 W/m 6,4 km/h (2 Bft) 97,87 %
09.12.2021 03:58 1,3 C 0,6 C -1,1 C 93 % 1003,3 hPa 0,0 l/m 0 min 0 min 0 W/m 6,4 km/h (2 Bft) 95,65 %
09.12.2021 04:00 1,3 C 0,6 C -1,1 C 93 % 1003,3 hPa 0,0 l/m 0 min 0 min 0 W/m 6,4 km/h (2 Bft) 95,74 %
09.12.2021 04:02 1,3 C 0,6 C -1,1 C 93 % 1003,3 hPa 0,0 l/m 0 min 0 min 0 W/m 6,4 km/h (2 Bft) 100,00 %
09.12.2021 04:04 1,3 C 0,6 C -1,1 C 93 % 1003,3 hPa 0,0 l/m 0 min 0 min 0 W/m 6,4 km/h (2 Bft) 97,87 %
09.12.2021 04:06 1,3 C 0,6 C -1,1 C 93 % 1003,3 hPa 0,0 l/m 0 min 0 min 0 W/m 6,4 km/h (2 Bft) 95,74 %
09.12.2021 04:08 1,3 C 0,6 C -1,1 C 93 % 1003,3 hPa 0,0 l/m 0 min 0 min 0 W/m 6,4 km/h (2 Bft) 95,74 %
09.12.2021 04:10 1,3 C 0,6 C -1,1 C 93 % 1003,3 hPa 0,0 l/m 0 min 0 min 0 W/m 6,4 km/h (2 Bft) 93,48 %
09.12.2021 04:12 1,3 C 0,6 C -1,1 C 93 % 1003,4 hPa 0,0 l/m 0 min 0 min 0 W/m 6,4 km/h (2 Bft) 93,62 %
09.12.2021 04:14 1,3 C 0,6 C -1,1 C 93 % 1003,4 hPa 0,0 l/m 0 min 0 min 0 W/m 6,4 km/h (2 Bft) 97,87 %
09.12.2021 04:16 1,3 C 0,6 C -1,1 C 93 % 1003,4 hPa 0,0 l/m 0 min 0 min 0 W/m 9,7 km/h (2 Bft) 95,74 %
09.12.2021 04:18 1,3 C 0,6 C -1,1 C 93 % 1003,4 hPa 0,0 l/m 0 min 0 min 0 W/m 6,4 km/h (2 Bft) 97,87 %
09.12.2021 04:20 1,3 C 0,6 C -1,1 C 93 % 1003,4 hPa 0,0 l/m 0 min 0 min 0 W/m 6,4 km/h (2 Bft) 97,87 %
09.12.2021 04:22 1,2 C 0,6 C -1,1 C 93 % 1003,4 hPa 0,0 l/m 0 min 0 min 0 W/m 3,2 km/h (1 Bft) 97,37 %
09.12.2021 04:24 1,2 C 0,6 C -1,1 C 93 % 1003,4 hPa 0,0 l/m 0 min 0 min 0 W/m 6,4 km/h (2 Bft) 97,83 %
09.12.2021 04:26 1,2 C 0,6 C -1,1 C 93 % 1003,4 hPa 0,0 l/m 0 min 0 min 0 W/m 6,4 km/h (2 Bft) 95,74 %
09.12.2021 04:28 1,2 C 0,6 C -1,1 C 93 % 1003,3 hPa 0,0 l/m 0 min 0 min 0 W/m 6,4 km/h (2 Bft) 97,87 %
09.12.2021 04:30 1,2 C 0,6 C -1,1 C 93 % 1003,3 hPa 0,0 l/m 0 min 0 min 0 W/m 3,2 km/h (1 Bft) 96,00 %
09.12.2021 04:32 1,2 C 0,6 C -1,1 C 93 % 1003,2 hPa 0,0 l/m 0 min 0 min 0 W/m 6,4 km/h (2 Bft) 95,65 %
09.12.2021 04:34 1,2 C 0,6 C -1,1 C 93 % 1003,2 hPa 0,0 l/m 0 min 0 min 0 W/m 6,4 km/h (2 Bft) 95,74 %
09.12.2021 04:36 1,2 C 0,6 C -1,1 C 93 % 1003,2 hPa 0,0 l/m 0 min 0 min 0 W/m 3,2 km/h (1 Bft) 97,87 %
09.12.2021 04:38 1,2 C 0,6 C -1,1 C 93 % 1003,3 hPa 0,0 l/m 0 min 0 min 0 W/m 3,2 km/h (1 Bft) 97,87 %
09.12.2021 04:40 1,2 C 0,6 C -1,1 C 93 % 1003,3 hPa 0,0 l/m 0 min 0 min 0 W/m 6,4 km/h (2 Bft) 97,87 %
09.12.2021 04:42 1,2 C 0,6 C -1,7 C 93 % 1003,3 hPa 0,0 l/m 0 min 0 min 0 W/m 3,2 km/h (1 Bft) 95,65 %
09.12.2021 04:44 1,2 C 0,6 C -1,7 C 93 % 1003,3 hPa 0,0 l/m 0 min 0 min 0 W/m 3,2 km/h (1 Bft) 97,87 %
09.12.2021 04:46 1,1 C 0,6 C -1,7 C 93 % 1003,3 hPa 0,0 l/m 0 min 0 min 0 W/m 6,4 km/h (2 Bft) 95,74 %
09.12.2021 04:48 1,1 C 0,6 C -1,7 C 94 % 1003,2 hPa 0,0 l/m 0 min 0 min 0 W/m 3,2 km/h (1 Bft) 95,74 %
09.12.2021 04:50 1,1 C 0,6 C -1,7 C 94 % 1003,3 hPa 0,0 l/m 0 min 0 min 0 W/m 6,4 km/h (2 Bft) 97,87 %
09.12.2021 04:52 1,1 C 0,6 C -1,7 C 94 % 1003,3 hPa 0,0 l/m 0 min 0 min 0 W/m 6,4 km/h (2 Bft) 97,87 %
09.12.2021 04:54 1,1 C 0,6 C -1,7 C 94 % 1003,3 hPa 0,0 l/m 0 min 0 min 0 W/m 6,4 km/h (2 Bft) 95,65 %
09.12.2021 04:56 1,1 C 0,6 C -1,7 C 94 % 1003,3 hPa 0,0 l/m 0 min 0 min 0 W/m 3,2 km/h (1 Bft) 100,00 %
09.12.2021 04:58 1,1 C 0,6 C -1,7 C 94 % 1003,3 hPa 0,0 l/m 0 min 0 min 0 W/m 6,4 km/h (2 Bft) 100,00 %
09.12.2021 05:00 1,1 C 0,6 C -1,7 C 94 % 1003,3 hPa 0,0 l/m 0 min 0 min 0 W/m 9,7 km/h (2 Bft) 97,87 %
09.12.2021 05:02 1,1 C 0,6 C -1,7 C 93 % 1003,4 hPa 0,0 l/m 0 min 0 min 0 W/m 6,4 km/h (2 Bft) 100,00 %
09.12.2021 05:04 1,0 C 0,6 C -1,7 C 93 % 1003,3 hPa 0,0 l/m 0 min 0 min 0 W/m 6,4 km/h (2 Bft) 97,87 %
09.12.2021 05:06 1,0 C 0,6 C -1,7 C 93 % 1003,4 hPa 0,0 l/m 0 min 0 min 0 W/m 6,4 km/h (2 Bft) 100,00 %
09.12.2021 05:08 1,0 C 0,6 C -1,7 C 94 % 1003,4 hPa 0,0 l/m 0 min 0 min 0 W/m 6,4 km/h (2 Bft) 97,87 %
09.12.2021 05:10 1,0 C 0,6 C -1,7 C 94 % 1003,3 hPa 0,0 l/m 0 min 0 min 0 W/m 6,4 km/h (2 Bft) 100,00 %
09.12.2021 05:12 1,0 C 0,6 C -1,7 C 94 % 1003,3 hPa 0,0 l/m 0 min 0 min 0 W/m 6,4 km/h (2 Bft) 100,00 %
09.12.2021 05:14 1,0 C 0,6 C -1,7 C 94 % 1003,3 hPa 0,0 l/m 0 min 0 min 0 W/m 6,4 km/h (2 Bft) 96,23 %
09.12.2021 05:16 1,0 C 0,6 C -1,7 C 94 % 1003,2 hPa 0,0 l/m 0 min 0 min 0 W/m 6,4 km/h (2 Bft) 100,00 %
09.12.2021 05:18 0,9 C 0,6 C -1,7 C 94 % 1003,3 hPa 0,0 l/m 0 min 0 min 0 W/m 6,4 km/h (2 Bft) 97,87 %
09.12.2021 05:20 0,9 C 0,6 C -1,7 C 94 % 1003,3 hPa 0,0 l/m 0 min 0 min 0 W/m 6,4 km/h (2 Bft) 97,83 %
09.12.2021 05:22 0,9 C 0,6 C -1,7 C 94 % 1003,3 hPa 0,0 l/m 0 min 0 min 0 W/m 6,4 km/h (2 Bft) 97,87 %
09.12.2021 05:24 0,9 C 0,0 C -1,7 C 94 % 1003,4 hPa 0,0 l/m 0 min 0 min 0 W/m 6,4 km/h (2 Bft) 97,87 %
09.12.2021 05:26 0,9 C 0,0 C -1,7 C 94 % 1003,3 hPa 0,0 l/m 0 min 0 min 0 W/m 12,9 km/h (3 Bft) 97,87 %
09.12.2021 05:28 0,9 C 0,0 C -1,7 C 94 % 1003,4 hPa 0,0 l/m 0 min 0 min 0 W/m 6,4 km/h (2 Bft) 97,87 %
09.12.2021 05:30 0,9 C 0,0 C -1,7 C 94 % 1003,4 hPa 0,0 l/m 0 min 0 min 0 W/m 6,4 km/h (2 Bft) 95,74 %
09.12.2021 05:32 0,9 C 0,0 C -1,7 C 94 % 1003,4 hPa 0,0 l/m 0 min 0 min 0 W/m 6,4 km/h (2 Bft) 93,48 %
09.12.2021 05:34 0,8 C 0,0 C -1,7 C 94 % 1003,4 hPa 0,0 l/m 0 min 0 min 0 W/m 3,2 km/h (1 Bft) 95,74 %
09.12.2021 05:36 0,8 C 0,0 C -1,7 C 94 % 1003,5 hPa 0,0 l/m 0 min 0 min 0 W/m 3,2 km/h (1 Bft) 95,74 %
09.12.2021 05:38 0,8 C 0,0 C -1,7 C 94 % 1003,5 hPa 0,0 l/m 0 min 0 min 0 W/m 6,4 km/h (2 Bft) 95,74 %
09.12.2021 05:40 0,8 C 0,0 C -1,7 C 94 % 1003,5 hPa 0,0 l/m 0 min 0 min 0 W/m 0,0 km/h (0 Bft) 95,74 %
09.12.2021 05:42 0,8 C 0,0 C -1,7 C 94 % 1003,6 hPa 0,0 l/m 0 min 0 min 0 W/m 3,2 km/h (1 Bft) 95,74 %
09.12.2021 05:44 0,8 C 0,0 C -1,7 C 94 % 1003,6 hPa 0,0 l/m 0 min 0 min 0 W/m 3,2 km/h (1 Bft) 95,65 %
09.12.2021 05:46 0,8 C 0,0 C -1,7 C 94 % 1003,7 hPa 0,0 l/m 0 min 0 min 0 W/m 3,2 km/h (1 Bft) 95,74 %
09.12.2021 05:48 0,8 C 0,0 C -1,7 C 94 % 1003,7 hPa 0,0 l/m 0 min 0 min 0 W/m 3,2 km/h (1 Bft) 95,74 %
09.12.2021 05:50 0,8 C 0,0 C -1,7 C 94 % 1003,7 hPa 0,0 l/m 0 min 0 min 0 W/m 6,4 km/h (2 Bft) 95,74 %
09.12.2021 05:52 0,7 C 0,0 C -1,7 C 94 % 1003,7 hPa 0,0 l/m 0 min 0 min 0 W/m 6,4 km/h (2 Bft) 95,74 %
09.12.2021 05:54 0,7 C 0,0 C -1,7 C 94 % 1003,7 hPa 0,0 l/m 0 min 0 min 0 W/m 3,2 km/h (1 Bft) 95,65 %
09.12.2021 05:56 0,7 C 0,0 C -1,7 C 94 % 1003,7 hPa 0,0 l/m 0 min 0 min 0 W/m 3,2 km/h (1 Bft) 97,87 %
09.12.2021 05:58 0,7 C 0,0 C -1,7 C 94 % 1003,8 hPa 0,0 l/m 0 min 0 min 0 W/m 6,4 km/h (2 Bft) 95,74 %
09.12.2021 06:00 0,6 C 0,0 C -1,7 C 94 % 1003,8 hPa 0,0 l/m 0 min 0 min 0 W/m 3,2 km/h (1 Bft) 100,00 %
09.12.2021 06:02 0,6 C 0,0 C -1,7 C 94 % 1003,8 hPa 0,0 l/m 0 min 0 min 0 W/m 6,4 km/h (2 Bft) 100,00 %
09.12.2021 06:04 0,6 C 0,0 C -1,7 C 94 % 1003,8 hPa 0,0 l/m 0 min 0 min 0 W/m 12,9 km/h (3 Bft) 100,00 %
09.12.2021 06:08 0,6 C 0,0 C -1,7 C 94 % 1003,8 hPa 0,0 l/m 0 min 0 min 0 W/m 12,9 km/h (3 Bft) 97,87 %
09.12.2021 06:10 0,5 C 0,0 C -1,7 C 94 % 1003,8 hPa 0,0 l/m 0 min 0 min 0 W/m 6,4 km/h (2 Bft) 100,00 %
09.12.2021 06:12 0,5 C 0,0 C -2,2 C 94 % 1003,9 hPa 0,0 l/m 0 min 0 min 0 W/m 12,9 km/h (3 Bft) 97,87 %
09.12.2021 06:14 0,4 C 0,0 C -2,2 C 94 % 1003,9 hPa 0,0 l/m 0 min 0 min 0 W/m 12,9 km/h (3 Bft) 100,00 %
09.12.2021 06:16 0,4 C 0,0 C -1,7 C 94 % 1003,9 hPa 0,0 l/m 0 min 0 min 0 W/m 6,4 km/h (2 Bft) 100,00 %
09.12.2021 06:18 0,4 C 0,0 C -2,2 C 94 % 1003,9 hPa 0,0 l/m 0 min 0 min 0 W/m 6,4 km/h (2 Bft) 97,87 %
09.12.2021 06:20 0,4 C 0,0 C -2,2 C 94 % 1003,9 hPa 0,0 l/m 0 min 0 min 0 W/m 12,9 km/h (3 Bft) 100,00 %
09.12.2021 06:22 0,4 C 0,0 C -2,2 C 94 % 1003,9 hPa 0,0 l/m 0 min 0 min 0 W/m 12,9 km/h (3 Bft) 100,00 %
09.12.2021 06:24 0,4 C 0,0 C -2,2 C 94 % 1004,0 hPa 0,0 l/m 0 min 0 min 0 W/m 6,4 km/h (2 Bft) 100,00 %
09.12.2021 06:26 0,4 C 0,0 C -2,2 C 94 % 1004,0 hPa 0,0 l/m 0 min 0 min 0 W/m 12,9 km/h (3 Bft) 100,00 %
09.12.2021 06:28 0,4 C 0,0 C -1,7 C 94 % 1004,0 hPa 0,0 l/m 0 min 0 min 0 W/m 12,9 km/h (3 Bft) 100,00 %
09.12.2021 06:30 0,4 C 0,0 C -1,7 C 94 % 1004,1 hPa 0,0 l/m 0 min 0 min 0 W/m 12,9 km/h (3 Bft) 97,87 %
09.12.2021 06:32 0,4 C 0,0 C -1,7 C 94 % 1004,0 hPa 0,0 l/m 0 min 0 min 0 W/m 12,9 km/h (3 Bft) 100,00 %
09.12.2021 06:34 0,4 C 0,0 C -1,7 C 94 % 1004,1 hPa 0,0 l/m 0 min 0 min 0 W/m 12,9 km/h (3 Bft) 97,87 %
09.12.2021 06:36 0,4 C 0,0 C -1,7 C 94 % 1004,1 hPa 0,0 l/m 0 min 0 min 0 W/m 6,4 km/h (2 Bft) 97,87 %
09.12.2021 06:38 0,4 C 0,0 C -1,7 C 94 % 1004,1 hPa 0,0 l/m 0 min 0 min 0 W/m 6,4 km/h (2 Bft) 100,00 %
09.12.2021 06:40 0,4 C 0,0 C -1,7 C 94 % 1004,1 hPa 0,0 l/m 0 min 0 min 0 W/m 12,9 km/h (3 Bft) 100,00 %
09.12.2021 06:42 0,3 C 0,0 C -1,7 C 94 % 1004,2 hPa 0,0 l/m 0 min 0 min 0 W/m 12,9 km/h (3 Bft) 100,00 %
09.12.2021 06:44 0,3 C 0,0 C -2,2 C 94 % 1004,2 hPa 0,0 l/m 0 min 0 min 0 W/m 6,4 km/h (2 Bft) 97,87 %
09.12.2021 06:46 0,3 C 0,0 C -2,2 C 94 % 1004,2 hPa 0,0 l/m 0 min 0 min 0 W/m 6,4 km/h (2 Bft) 100,00 %
09.12.2021 06:48 0,3 C 0,0 C -2,2 C 94 % 1004,2 hPa 0,0 l/m 0 min 0 min 0 W/m 6,4 km/h (2 Bft) 100,00 %
09.12.2021 06:50 0,3 C 0,0 C -2,2 C 94 % 1004,2 hPa 0,0 l/m 0 min 0 min 0 W/m 6,4 km/h (2 Bft) 97,83 %
09.12.2021 06:52 0,3 C 0,0 C -2,2 C 94 % 1004,2 hPa 0,0 l/m 0 min 0 min 0 W/m 6,4 km/h (2 Bft) 100,00 %
09.12.2021 06:54 0,3 C 0,0 C -1,7 C 95 % 1004,2 hPa 0,0 l/m 0 min 0 min 0 W/m 12,9 km/h (3 Bft) 100,00 %
09.12.2021 06:56 0,3 C 0,0 C -1,7 C 95 % 1004,2 hPa 0,0 l/m 0 min 0 min 0 W/m 12,9 km/h (3 Bft) 97,87 %
09.12.2021 06:58 0,3 C 0,0 C -1,7 C 95 % 1004,2 hPa 0,0 l/m 0 min 0 min 0 W/m 9,7 km/h (2 Bft) 100,00 %
09.12.2021 07:00 0,3 C 0,0 C -1,7 C 95 % 1004,2 hPa 0,0 l/m 0 min 0 min 0 W/m 6,4 km/h (2 Bft) 100,00 %
09.12.2021 07:02 0,3 C 0,0 C -1,7 C 94 % 1004,2 hPa 0,0 l/m 0 min 0 min 0 W/m 12,9 km/h (3 Bft) 97,83 %
09.12.2021 07:04 0,3 C 0,0 C -1,7 C 94 % 1004,2 hPa 0,0 l/m 0 min 0 min 0 W/m 12,9 km/h (3 Bft) 100,00 %
09.12.2021 07:06 0,3 C 0,0 C -1,7 C 95 % 1004,3 hPa 0,0 l/m 0 min 0 min 0 W/m 12,9 km/h (3 Bft) 100,00 %
09.12.2021 07:08 0,3 C 0,0 C -1,7 C 95 % 1004,3 hPa 0,0 l/m 0 min 0 min 0 W/m 12,9 km/h (3 Bft) 100,00 %
09.12.2021 07:10 0,4 C 0,0 C -1,7 C 95 % 1004,3 hPa 0,0 l/m 0 min 0 min 0 W/m 16,1 km/h (3 Bft) 100,00 %
09.12.2021 07:12 0,4 C 0,0 C -1,7 C 95 % 1004,3 hPa 0,0 l/m 0 min 0 min 0 W/m 16,1 km/h (3 Bft) 100,00 %
09.12.2021 07:14 0,3 C 0,0 C -1,7 C 95 % 1004,3 hPa 0,0 l/m 0 min 0 min 0 W/m 16,1 km/h (3 Bft) 97,87 %
09.12.2021 07:16 0,3 C 0,0 C -1,7 C 95 % 1004,3 hPa 0,0 l/m 0 min 0 min 0 W/m 12,9 km/h (3 Bft) 97,83 %
09.12.2021 07:18 0,4 C 0,0 C -1,7 C 95 % 1004,4 hPa 0,0 l/m 0 min 0 min 0 W/m 12,9 km/h (3 Bft) 93,62 %
09.12.2021 07:20 0,4 C 0,0 C -1,7 C 95 % 1004,4 hPa 0,0 l/m 0 min 0 min 0 W/m 12,9 km/h (3 Bft) 95,74 %
09.12.2021 07:22 0,4 C 0,0 C -1,7 C 95 % 1004,4 hPa 0,0 l/m 0 min 0 min 0 W/m 12,9 km/h (3 Bft) 91,49 %
09.12.2021 07:24 0,4 C 0,0 C -1,7 C 95 % 1004,4 hPa 0,0 l/m 0 min 0 min 0 W/m 9,7 km/h (2 Bft) 95,74 %
09.12.2021 07:26 0,4 C 0,0 C -1,7 C 95 % 1004,5 hPa 0,0 l/m 0 min 0 min 0 W/m 6,4 km/h (2 Bft) 95,74 %
09.12.2021 07:28 0,4 C 0,0 C -1,7 C 95 % 1004,5 hPa 0,0 l/m 0 min 0 min 0 W/m 12,9 km/h (3 Bft) 95,65 %
09.12.2021 07:30 0,4 C 0,0 C -1,7 C 95 % 1004,5 hPa 0,0 l/m 0 min 0 min 0 W/m 16,1 km/h (3 Bft) 95,74 %
09.12.2021 07:32 0,4 C 0,0 C -1,7 C 95 % 1004,5 hPa 0,0 l/m 0 min 0 min 0 W/m 12,9 km/h (3 Bft) 93,62 %
09.12.2021 07:34 0,4 C 0,0 C -1,7 C 95 % 1004,5 hPa 0,0 l/m 0 min 0 min 0 W/m 12,9 km/h (3 Bft) 89,47 %
09.12.2021 07:36 0,4 C 0,0 C -1,7 C 95 % 1004,5 hPa 0,0 l/m 0 min 0 min 0 W/m 6,4 km/h (2 Bft) 93,62 %
09.12.2021 07:38 0,3 C 0,0 C -1,7 C 95 % 1004,6 hPa 0,0 l/m 0 min 0 min 0 W/m 12,9 km/h (3 Bft) 93,62 %
09.12.2021 07:40 0,3 C 0,0 C -1,7 C 95 % 1004,6 hPa 0,0 l/m 0 min 0 min 0 W/m 6,4 km/h (2 Bft) 93,62 %
09.12.2021 07:42 0,3 C 0,0 C -1,7 C 95 % 1004,5 hPa 0,0 l/m 0 min 0 min 0 W/m 6,4 km/h (2 Bft) 91,84 %
09.12.2021 07:44 0,3 C 0,0 C -1,7 C 95 % 1004,5 hPa 0,0 l/m 0 min 0 min 0 W/m 6,4 km/h (2 Bft) 95,74 %
09.12.2021 07:46 0,3 C 0,0 C -1,7 C 95 % 1004,5 hPa 0,0 l/m 0 min 0 min 0 W/m 6,4 km/h (2 Bft) 93,62 %
09.12.2021 07:48 0,3 C -0,6 C -1,7 C 95 % 1004,6 hPa 0,0 l/m 0 min 0 min 0 W/m 3,2 km/h (1 Bft) 93,48 %
09.12.2021 07:50 0,3 C -0,6 C -1,7 C 95 % 1004,6 hPa 0,0 l/m 0 min 0 min 0 W/m 6,4 km/h (2 Bft) 93,62 %
09.12.2021 07:52 0,3 C -0,6 C -1,7 C 95 % 1004,5 hPa 0,0 l/m 0 min 0 min 0 W/m 6,4 km/h (2 Bft) 95,74 %
09.12.2021 07:54 0,3 C -0,6 C -2,2 C 95 % 1004,5 hPa 0,0 l/m 0 min 0 min 0 W/m 6,4 km/h (2 Bft) 93,62 %
09.12.2021 07:56 0,3 C -0,6 C -1,7 C 95 % 1004,5 hPa 0,0 l/m 0 min 0 min 0 W/m 3,2 km/h (1 Bft) 95,74 %
09.12.2021 07:58 0,3 C -0,6 C -1,7 C 95 % 1004,5 hPa 0,0 l/m 0 min 0 min 0 W/m 6,4 km/h (2 Bft) 93,62 %
09.12.2021 08:00 0,3 C 0,0 C -1,7 C 95 % 1004,5 hPa 0,0 l/m 0 min 0 min 0 W/m 12,9 km/h (3 Bft) 95,65 %
09.12.2021 08:02 0,3 C 0,0 C -1,7 C 95 % 1004,5 hPa 0,0 l/m 0 min 0 min 0 W/m 9,7 km/h (2 Bft) 97,87 %
09.12.2021 08:04 0,3 C 0,0 C -1,7 C 95 % 1004,6 hPa 0,0 l/m 0 min 0 min 0 W/m 6,4 km/h (2 Bft) 91,18 %
09.12.2021 08:06 0,3 C 0,0 C -1,7 C 95 % 1004,6 hPa 0,0 l/m 0 min 0 min 0 W/m 6,4 km/h (2 Bft) 95,74 %
09.12.2021 08:08 0,3 C 0,0 C -1,7 C 95 % 1004,6 hPa 0,0 l/m 0 min 0 min 0 W/m 6,4 km/h (2 Bft) 97,87 %
09.12.2021 08:10 0,3 C 0,0 C -1,7 C 95 % 1004,6 hPa 0,0 l/m 0 min 0 min 0 W/m 6,4 km/h (2 Bft) 100,00 %
09.12.2021 08:12 0,3 C 0,0 C -1,7 C 95 % 1004,7 hPa 0,0 l/m 0 min 0 min 0 W/m 6,4 km/h (2 Bft) 100,00 %
09.12.2021 08:14 0,3 C 0,0 C -1,7 C 95 % 1004,6 hPa 0,0 l/m 0 min 0 min 0 W/m 6,4 km/h (2 Bft) 100,00 %
09.12.2021 08:16 0,3 C -0,6 C -1,7 C 95 % 1004,6 hPa 0,0 l/m 0 min 0 min 0 W/m 6,4 km/h (2 Bft) 97,87 %
09.12.2021 08:18 0,3 C -0,6 C -1,7 C 95 % 1004,6 hPa 0,0 l/m 0 min 0 min 0 W/m 6,4 km/h (2 Bft) 100,00 %
09.12.2021 08:20 0,3 C -0,6 C -1,7 C 95 % 1004,6 hPa 0,0 l/m 0 min 0 min 0 W/m 6,4 km/h (2 Bft) 100,00 %
09.12.2021 08:22 0,3 C -0,6 C -1,7 C 95 % 1004,7 hPa 0,0 l/m 0 min 0 min 0 W/m 9,7 km/h (2 Bft) 100,00 %
09.12.2021 08:24 0,2 C -0,6 C -1,7 C 95 % 1004,7 hPa 0,0 l/m 0 min 0 min 0 W/m 6,4 km/h (2 Bft) 100,00 %
09.12.2021 08:26 0,2 C -0,6 C -1,7 C 95 % 1004,6 hPa 0,0 l/m 0 min 0 min 0 W/m 6,4 km/h (2 Bft) 95,74 %
09.12.2021 08:28 0,2 C -0,6 C -1,7 C 95 % 1004,6 hPa 0,0 l/m 0 min 0 min 0 W/m 6,4 km/h (2 Bft) 100,00 %
09.12.2021 08:30 0,2 C -0,6 C -1,7 C 95 % 1004,6 hPa 0,0 l/m 0 min 0 min 0 W/m 3,2 km/h (1 Bft) 100,00 %
09.12.2021 08:32 0,2 C -0,6 C -1,7 C 95 % 1004,6 hPa 0,0 l/m 0 min 0 min 3 W/m 6,4 km/h (2 Bft) 97,87 %
09.12.2021 08:34 0,2 C 0,0 C -1,7 C 95 % 1004,6 hPa 0,0 l/m 0 min 0 min 5 W/m 6,4 km/h (2 Bft) 100,00 %
09.12.2021 08:36 0,2 C 0,0 C -1,7 C 95 % 1004,6 hPa 0,0 l/m 0 min 0 min 5 W/m 3,2 km/h (1 Bft) 100,00 %
09.12.2021 08:38 0,2 C 0,0 C -1,7 C 95 % 1004,5 hPa 0,0 l/m 0 min 0 min 6 W/m 6,4 km/h (2 Bft) 100,00 %
09.12.2021 08:40 0,3 C 0,0 C -1,7 C 95 % 1004,6 hPa 0,0 l/m 0 min 0 min 7 W/m 12,9 km/h (3 Bft) 97,87 %
09.12.2021 08:42 0,4 C 0,0 C -1,7 C 95 % 1004,6 hPa 0,0 l/m 0 min 0 min 7 W/m 9,7 km/h (2 Bft) 100,00 %
09.12.2021 08:43 0,4 C 0,0 C -1,7 C 95 % 1004,6 hPa 0,0 l/m 0 min 0 min 8 W/m 12,9 km/h (3 Bft) 100,00 %
09.12.2021 08:46 0,4 C 0,6 C -1,7 C 95 % 1004,6 hPa 0,0 l/m 0 min 0 min 9 W/m 9,7 km/h (2 Bft) 100,00 %
09.12.2021 08:48 0,4 C 0,6 C -1,7 C 95 % 1004,6 hPa 0,0 l/m 0 min 0 min 11 W/m 9,7 km/h (2 Bft) 100,00 %
09.12.2021 08:50 0,5 C 0,6 C -1,7 C 95 % 1004,6 hPa 0,0 l/m 0 min 0 min 11 W/m 12,9 km/h (3 Bft) 100,00 %
09.12.2021 08:52 0,6 C 0,6 C -1,1 C 95 % 1004,6 hPa 0,0 l/m 0 min 0 min 12 W/m 6,4 km/h (2 Bft) 100,00 %
09.12.2021 08:54 0,6 C 0,6 C -1,1 C 95 % 1004,6 hPa 0,0 l/m 0 min 0 min 12 W/m 6,4 km/h (2 Bft) 100,00 %
09.12.2021 08:56 0,6 C 0,6 C -1,1 C 96 % 1004,6 hPa 0,0 l/m 0 min 0 min 14 W/m 6,4 km/h (2 Bft) 100,00 %
09.12.2021 08:58 0,7 C 0,6 C -1,1 C 96 % 1004,6 hPa 0,0 l/m 0 min 0 min 16 W/m 16,1 km/h (3 Bft) 100,00 %
09.12.2021 09:00 0,7 C 0,6 C -1,1 C 96 % 1004,6 hPa 0,0 l/m 0 min 0 min 17 W/m 9,7 km/h (2 Bft) 100,00 %
09.12.2021 09:02 0,7 C 0,6 C -1,1 C 96 % 1004,7 hPa 0,0 l/m 0 min 0 min 19 W/m 6,4 km/h (2 Bft) 100,00 %
09.12.2021 09:04 0,8 C 0,6 C -1,1 C 96 % 1004,6 hPa 0,0 l/m 0 min 0 min 20 W/m 6,4 km/h (2 Bft) 100,00 %
09.12.2021 09:06 0,8 C 1,1 C -1,1 C 96 % 1004,6 hPa 0,0 l/m 0 min 0 min 21 W/m 12,9 km/h (3 Bft) 95,74 %
09.12.2021 09:08 0,9 C 1,1 C -1,1 C 96 % 1004,6 hPa 0,0 l/m 0 min 0 min 22 W/m 9,7 km/h (2 Bft) 97,87 %
09.12.2021 09:10 0,9 C 1,1 C -1,1 C 96 % 1004,6 hPa 0,0 l/m 0 min 0 min 23 W/m 12,9 km/h (3 Bft) 97,83 %
09.12.2021 09:12 1,0 C 1,1 C -1,1 C 96 % 1004,7 hPa 0,0 l/m 0 min 0 min 23 W/m 16,1 km/h (3 Bft) 97,87 %
09.12.2021 09:14 1,1 C 1,1 C -1,1 C 96 % 1004,7 hPa 0,0 l/m 0 min 0 min 25 W/m 19,3 km/h (3 Bft) 96,23 %
09.12.2021 09:16 1,1 C 1,1 C -0,6 C 96 % 1004,7 hPa 0,0 l/m 0 min 0 min 25 W/m 22,5 km/h (4 Bft) 97,87 %
09.12.2021 09:18 1,2 C 1,1 C -0,6 C 96 % 1004,7 hPa 0,0 l/m 0 min 0 min 26 W/m 9,7 km/h (2 Bft) 97,87 %
09.12.2021 09:20 1,2 C 1,1 C -0,6 C 96 % 1004,7 hPa 0,0 l/m 0 min 0 min 26 W/m 16,1 km/h (3 Bft) 100,00 %
09.12.2021 09:22 1,2 C 1,1 C -0,6 C 96 % 1004,8 hPa 0,0 l/m 0 min 0 min 26 W/m 12,9 km/h (3 Bft) 95,92 %
09.12.2021 09:24 1,3 C 1,1 C -0,6 C 95 % 1004,8 hPa 0,0 l/m 0 min 0 min 27 W/m 9,7 km/h (2 Bft) 97,87 %
09.12.2021 09:26 1,3 C 1,1 C -0,6 C 96 % 1004,8 hPa 0,0 l/m 0 min 0 min 28 W/m 12,9 km/h (3 Bft) 98,11 %
09.12.2021 09:28 1,3 C 1,1 C -0,6 C 96 % 1004,7 hPa 0,0 l/m 0 min 0 min 28 W/m 9,7 km/h (2 Bft) 97,87 %
09.12.2021 09:30 1,3 C 1,1 C -0,6 C 96 % 1004,7 hPa 0,0 l/m 0 min 0 min 28 W/m 9,7 km/h (2 Bft) 97,37 %
09.12.2021 09:32 1,4 C 1,1 C -0,6 C 95 % 1004,8 hPa 0,0 l/m 0 min 0 min 30 W/m 16,1 km/h (3 Bft) 93,62 %
09.12.2021 09:34 1,4 C 1,1 C -0,6 C 95 % 1004,8 hPa 0,0 l/m 0 min 0 min 30 W/m 6,4 km/h (2 Bft) 97,87 %
09.12.2021 09:36 1,4 C 1,7 C -0,6 C 95 % 1004,8 hPa 0,0 l/m 0 min 0 min 31 W/m 12,9 km/h (3 Bft) 97,83 %
09.12.2021 09:38 1,4 C 1,7 C -0,6 C 95 % 1004,8 hPa 0,0 l/m 0 min 0 min 32 W/m 12,9 km/h (3 Bft) 97,87 %
09.12.2021 09:40 1,4 C 1,7 C -0,6 C 95 % 1004,7 hPa 0,0 l/m 0 min 0 min 32 W/m 12,9 km/h (3 Bft) 97,87 %
09.12.2021 09:42 1,5 C 1,7 C -0,6 C 95 % 1004,7 hPa 0,0 l/m 0 min 0 min 33 W/m 6,4 km/h (2 Bft) 100,00 %
09.12.2021 09:44 1,6 C 1,7 C -0,6 C 95 % 1004,8 hPa 0,0 l/m 0 min 0 min 33 W/m 9,7 km/h (2 Bft) 100,00 %
09.12.2021 09:46 1,6 C 1,7 C -0,6 C 95 % 1004,8 hPa 0,0 l/m 0 min 0 min 35 W/m 12,9 km/h (3 Bft) 97,87 %
09.12.2021 09:48 1,6 C 1,7 C -0,6 C 95 % 1004,9 hPa 0,0 l/m 0 min 0 min 36 W/m 12,9 km/h (3 Bft) 97,83 %
09.12.2021 09:50 1,7 C 1,7 C -0,6 C 95 % 1004,9 hPa 0,0 l/m 0 min 0 min 39 W/m 12,9 km/h (3 Bft) 97,87 %
09.12.2021 09:52 1,7 C 1,7 C -0,6 C 95 % 1005,0 hPa 0,0 l/m 0 min 0 min 40 W/m 9,7 km/h (2 Bft) 97,87 %
09.12.2021 09:54 1,7 C 2,2 C 0,0 C 95 % 1005,0 hPa 0,0 l/m 0 min 0 min 44 W/m 9,7 km/h (2 Bft) 97,87 %
09.12.2021 09:56 1,7 C 2,2 C 0,0 C 95 % 1005,0 hPa 0,0 l/m 0 min 0 min 42 W/m 6,4 km/h (2 Bft) 95,74 %
09.12.2021 09:58 1,8 C 2,2 C 0,0 C 95 % 1005,0 hPa 0,0 l/m 0 min 0 min 42 W/m 9,7 km/h (2 Bft) 97,87 %
09.12.2021 10:00 1,8 C 2,2 C 0,0 C 95 % 1005,0 hPa 0,0 l/m 0 min 0 min 46 W/m 9,7 km/h (2 Bft) 93,48 %
09.12.2021 10:02 1,8 C 2,2 C 0,0 C 95 % 1005,0 hPa 0,0 l/m 0 min 0 min 62 W/m 12,9 km/h (3 Bft) 97,92 %
09.12.2021 10:04 1,9 C 2,2 C 0,0 C 95 % 1005,0 hPa 0,0 l/m 0 min 0 min 70 W/m 9,7 km/h (2 Bft) 97,87 %
09.12.2021 10:06 1,9 C 2,2 C 0,0 C 95 % 1005,0 hPa 0,0 l/m 2 min 0 min 105 W/m 9,7 km/h (2 Bft) 95,92 %
09.12.2021 10:08 2,0 C 2,8 C 0,0 C 95 % 1005,0 hPa 0,0 l/m 2 min 0 min 115 W/m 12,9 km/h (3 Bft) 97,92 %
09.12.2021 10:10 2,1 C 2,8 C 0,0 C 95 % 1005,1 hPa 0,0 l/m 0 min 0 min 81 W/m 12,9 km/h (3 Bft) 97,87 %
09.12.2021 10:12 2,1 C 2,8 C 0,6 C 95 % 1005,1 hPa 0,0 l/m 0 min 0 min 77 W/m 9,7 km/h (2 Bft) 97,83 %
09.12.2021 10:14 2,1 C 2,8 C 0,6 C 95 % 1005,1 hPa 0,0 l/m 0 min 0 min 70 W/m 12,9 km/h (3 Bft) 97,87 %
09.12.2021 10:16 2,2 C 2,8 C 0,6 C 95 % 1005,1 hPa 0,0 l/m 2 min 0 min 115 W/m 12,9 km/h (3 Bft) 97,87 %
09.12.2021 10:18 2,2 C 2,8 C 0,6 C 95 % 1005,0 hPa 0,0 l/m 2 min 0 min 132 W/m 12,9 km/h (3 Bft) 97,87 %
09.12.2021 10:20 2,3 C 2,8 C 0,6 C 94 % 1005,0 hPa 0,0 l/m 2 min 0 min 154 W/m 12,9 km/h (3 Bft) 97,87 %
09.12.2021 10:22 2,3 C 2,8 C 0,6 C 94 % 1005,1 hPa 0,0 l/m 2 min 0 min 172 W/m 12,9 km/h (3 Bft) 97,87 %
09.12.2021 10:24 2,3 C 2,8 C 0,6 C 94 % 1005,1 hPa 0,0 l/m 2 min 0 min 188 W/m 12,9 km/h (3 Bft) 97,83 %
09.12.2021 10:26 2,3 C 2,8 C 0,6 C 94 % 1005,1 hPa 0,0 l/m 2 min 0 min 133 W/m 12,9 km/h (3 Bft) 95,74 %
09.12.2021 10:28 2,4 C 2,8 C 0,6 C 94 % 1005,2 hPa 0,0 l/m 0 min 0 min 61 W/m 16,1 km/h (3 Bft) 93,62 %
09.12.2021 10:30 2,4 C 2,8 C 0,6 C 94 % 1005,2 hPa 0,0 l/m 2 min 0 min 155 W/m 16,1 km/h (3 Bft) 95,74 %
09.12.2021 10:32 2,4 C 2,8 C 0,6 C 94 % 1005,2 hPa 0,0 l/m 2 min 0 min 181 W/m 12,9 km/h (3 Bft) 95,74 %
09.12.2021 10:34 2,5 C 2,8 C 0,6 C 94 % 1005,2 hPa 0,0 l/m 2 min 0 min 182 W/m 16,1 km/h (3 Bft) 97,83 %
09.12.2021 10:36 2,6 C 2,8 C 0,6 C 94 % 1005,2 hPa 0,0 l/m 2 min 0 min 191 W/m 16,1 km/h (3 Bft) 97,87 %
09.12.2021 10:38 2,6 C 2,8 C 0,6 C 94 % 1005,2 hPa 0,0 l/m 2 min 0 min 200 W/m 9,7 km/h (2 Bft) 95,74 %
09.12.2021 10:40 2,6 C 3,3 C 0,6 C 94 % 1005,2 hPa 0,0 l/m 2 min 0 min 223 W/m 6,4 km/h (2 Bft) 97,87 %
09.12.2021 10:42 2,7 C 3,3 C 0,6 C 94 % 1005,2 hPa 0,0 l/m 2 min 0 min 257 W/m 16,1 km/h (3 Bft) 97,87 %
09.12.2021 10:44 2,7 C 3,9 C 1,1 C 94 % 1005,2 hPa 0,0 l/m 2 min 0 min 250 W/m 12,9 km/h (3 Bft) 95,74 %
09.12.2021 10:46 2,8 C 3,9 C 1,1 C 94 % 1005,2 hPa 0,0 l/m 2 min 0 min 192 W/m 16,1 km/h (3 Bft) 95,65 %
09.12.2021 10:48 2,9 C 3,9 C 1,1 C 94 % 1005,3 hPa 0,0 l/m 2 min 0 min 231 W/m 12,9 km/h (3 Bft) 97,87 %
09.12.2021 10:50 2,9 C 3,9 C 1,1 C 93 % 1005,3 hPa 0,0 l/m 2 min 0 min 300 W/m 12,9 km/h (3 Bft) 95,74 %
09.12.2021 10:52 3,1 C 3,9 C 1,1 C 93 % 1005,3 hPa 0,0 l/m 2 min 0 min 163 W/m 12,9 km/h (3 Bft) 95,74 %
09.12.2021 10:54 3,1 C 3,9 C 1,1 C 93 % 1005,3 hPa 0,0 l/m 0 min 0 min 87 W/m 16,1 km/h (3 Bft) 97,87 %
09.12.2021 10:56 3,1 C 3,9 C 1,1 C 93 % 1005,3 hPa 0,0 l/m 0 min 0 min 86 W/m 9,7 km/h (2 Bft) 97,87 %
09.12.2021 10:58 3,2 C 3,9 C 1,1 C 93 % 1005,3 hPa 0,0 l/m 0 min 0 min 88 W/m 12,9 km/h (3 Bft) 97,83 %
09.12.2021 11:00 3,2 C 3,9 C 1,1 C 93 % 1005,4 hPa 0,0 l/m 0 min 0 min 82 W/m 3,2 km/h (1 Bft) 97,87 %
09.12.2021 11:02 3,3 C 3,9 C 1,1 C 93 % 1005,3 hPa 0,0 l/m 0 min 0 min 77 W/m 6,4 km/h (2 Bft) 100,00 %
09.12.2021 11:04 3,3 C 3,3 C 1,1 C 93 % 1005,4 hPa 0,0 l/m 0 min 0 min 73 W/m 16,1 km/h (3 Bft) 100,00 %
09.12.2021 11:06 3,3 C 3,3 C 1,1 C 93 % 1005,3 hPa 0,0 l/m 0 min 0 min 63 W/m 16,1 km/h (3 Bft) 100,00 %
09.12.2021 11:08 3,3 C 3,3 C 1,1 C 92 % 1005,4 hPa 0,0 l/m 0 min 0 min 69 W/m 12,9 km/h (3 Bft) 100,00 %
09.12.2021 11:10 3,4 C 3,3 C 1,1 C 92 % 1005,4 hPa 0,0 l/m 0 min 0 min 86 W/m 9,7 km/h (2 Bft) 95,65 %
09.12.2021 11:12 3,4 C 3,3 C 1,1 C 92 % 1005,3 hPa 0,0 l/m 0 min 0 min 86 W/m 12,9 km/h (3 Bft) 100,00 %
09.12.2021 11:14 3,4 C 3,3 C 1,1 C 92 % 1005,4 hPa 0,0 l/m 0 min 0 min 85 W/m 9,7 km/h (2 Bft) 100,00 %
09.12.2021 11:16 3,4 C 3,3 C 1,1 C 92 % 1005,3 hPa 0,0 l/m 0 min 0 min 80 W/m 12,9 km/h (3 Bft) 100,00 %
09.12.2021 11:18 3,4 C 3,3 C 1,1 C 92 % 1005,3 hPa 0,0 l/m 0 min 0 min 80 W/m 12,9 km/h (3 Bft) 97,87 %
09.12.2021 11:20 3,4 C 3,3 C 1,1 C 92 % 1005,3 hPa 0,0 l/m 0 min 0 min 82 W/m 12,9 km/h (3 Bft) 97,87 %
09.12.2021 11:22 3,4 C 3,3 C 1,1 C 92 % 1005,2 hPa 0,0 l/m 0 min 0 min 68 W/m 9,7 km/h (2 Bft) 95,65 %
09.12.2021 11:24 3,4 C 3,3 C 1,1 C 92 % 1005,2 hPa 0,0 l/m 0 min 0 min 63 W/m 9,7 km/h (2 Bft) 97,87 %
09.12.2021 11:26 3,5 C 3,3 C 1,1 C 91 % 1005,2 hPa 0,0 l/m 0 min 0 min 62 W/m 9,7 km/h (2 Bft) 97,87 %
09.12.2021 11:28 3,5 C 3,3 C 1,1 C 91 % 1005,1 hPa 0,0 l/m 0 min 0 min 64 W/m 12,9 km/h (3 Bft) 97,87 %
09.12.2021 11:30 3,5 C 3,3 C 1,1 C 91 % 1005,1 hPa 0,0 l/m 0 min 0 min 61 W/m 9,7 km/h (2 Bft) 97,87 %
09.12.2021 11:32 3,5 C 3,3 C 1,1 C 91 % 1005,1 hPa 0,0 l/m 0 min 0 min 61 W/m 6,4 km/h (2 Bft) 95,74 %
09.12.2021 11:34 3,5 C 3,3 C 1,1 C 91 % 1005,1 hPa 0,0 l/m 0 min 0 min 56 W/m 6,4 km/h (2 Bft) 97,83 %
09.12.2021 11:36 3,5 C 3,3 C 1,1 C 91 % 1005,0 hPa 0,0 l/m 0 min 0 min 52 W/m 12,9 km/h (3 Bft) 95,74 %
09.12.2021 11:38 3,6 C 3,3 C 1,1 C 91 % 1005,0 hPa 0,0 l/m 0 min 0 min 49 W/m 6,4 km/h (2 Bft) 95,74 %
09.12.2021 11:40 3,6 C 3,3 C 1,1 C 91 % 1005,0 hPa 0,0 l/m 0 min 0 min 50 W/m 9,7 km/h (2 Bft) 97,87 %
09.12.2021 11:42 3,6 C 3,3 C 1,1 C 91 % 1005,0 hPa 0,0 l/m 0 min 0 min 53 W/m 9,7 km/h (2 Bft) 95,74 %
09.12.2021 11:44 3,6 C 3,3 C 1,1 C 91 % 1004,9 hPa 0,0 l/m 0 min 0 min 57 W/m 12,9 km/h (3 Bft) 97,87 %
09.12.2021 11:46 3,6 C 3,3 C 1,1 C 91 % 1005,0 hPa 0,0 l/m 0 min 0 min 58 W/m 12,9 km/h (3 Bft) 97,83 %
09.12.2021 11:48 3,6 C 3,3 C 1,1 C 91 % 1005,0 hPa 0,0 l/m 0 min 0 min 54 W/m 6,4 km/h (2 Bft) 97,87 %
09.12.2021 11:50 3,6 C 3,3 C 1,1 C 91 % 1005,0 hPa 0,0 l/m 0 min 0 min 50 W/m 6,4 km/h (2 Bft) 97,87 %
09.12.2021 11:52 3,6 C 3,3 C 1,1 C 91 % 1004,9 hPa 0,0 l/m 0 min 0 min 48 W/m 12,9 km/h (3 Bft) 97,87 %
09.12.2021 11:54 3,6 C 3,3 C 1,1 C 91 % 1005,0 hPa 0,0 l/m 0 min 0 min 45 W/m 6,4 km/h (2 Bft) 97,87 %
09.12.2021 11:56 3,6 C 3,3 C 1,1 C 91 % 1005,0 hPa 0,0 l/m 0 min 0 min 47 W/m 6,4 km/h (2 Bft) 100,00 %
09.12.2021 11:58 3,7 C 3,3 C 1,1 C 91 % 1005,0 hPa 0,0 l/m 0 min 0 min 48 W/m 6,4 km/h (2 Bft) 100,00 %
09.12.2021 12:02 3,7 C 3,3 C 1,7 C 91 % 1004,9 hPa 0,0 l/m 0 min 0 min 53 W/m 6,4 km/h (2 Bft) 100,00 %
09.12.2021 12:04 3,7 C 3,9 C 1,7 C 91 % 1004,9 hPa 0,0 l/m 0 min 0 min 52 W/m 6,4 km/h (2 Bft) 97,87 %
09.12.2021 12:08 3,9 C 3,9 C 1,7 C 91 % 1004,8 hPa 0,0 l/m 0 min 0 min 64 W/m 9,7 km/h (2 Bft) 96,51 %
09.12.2021 12:10 3,9 C 3,9 C 1,7 C 91 % 1004,8 hPa 0,0 l/m 0 min 0 min 69 W/m 12,9 km/h (3 Bft) 100,00 %
09.12.2021 12:12 4,0 C 3,9 C 1,7 C 91 % 1004,7 hPa 0,0 l/m 0 min 0 min 69 W/m 9,7 km/h (2 Bft) 100,00 %
09.12.2021 12:14 4,0 C 3,9 C 1,7 C 91 % 1004,7 hPa 0,0 l/m 0 min 0 min 70 W/m 9,7 km/h (2 Bft) 100,00 %
09.12.2021 12:16 4,1 C 3,9 C 1,7 C 91 % 1004,7 hPa 0,0 l/m 0 min 0 min 72 W/m 16,1 km/h (3 Bft) 100,00 %
09.12.2021 12:18 4,1 C 3,9 C 1,7 C 91 % 1004,6 hPa 0,0 l/m 0 min 0 min 75 W/m 6,4 km/h (2 Bft) 100,00 %
09.12.2021 12:20 4,1 C 3,9 C 1,7 C 91 % 1004,6 hPa 0,0 l/m 0 min 0 min 73 W/m 6,4 km/h (2 Bft) 100,00 %
09.12.2021 12:22 4,1 C 3,9 C 1,7 C 91 % 1004,6 hPa 0,0 l/m 0 min 0 min 78 W/m 9,7 km/h (2 Bft) 97,87 %
09.12.2021 12:24 4,1 C 3,9 C 1,7 C 91 % 1004,5 hPa 0,0 l/m 0 min 0 min 77 W/m 9,7 km/h (2 Bft) 100,00 %
09.12.2021 12:26 4,2 C 3,9 C 1,7 C 91 % 1004,6 hPa 0,0 l/m 0 min 0 min 74 W/m 6,4 km/h (2 Bft) 100,00 %
09.12.2021 12:28 4,2 C 3,9 C 1,7 C 91 % 1004,5 hPa 0,0 l/m 0 min 0 min 77 W/m 9,7 km/h (2 Bft) 95,65 %
09.12.2021 12:30 4,2 C 3,9 C 1,7 C 91 % 1004,5 hPa 0,0 l/m 0 min 0 min 75 W/m 12,9 km/h (3 Bft) 100,00 %
09.12.2021 12:32 4,2 C 3,9 C 1,7 C 91 % 1004,6 hPa 0,0 l/m 0 min 0 min 67 W/m 9,7 km/h (2 Bft) 97,87 %
09.12.2021 12:34 4,2 C 3,9 C 1,7 C 91 % 1004,5 hPa 0,0 l/m 0 min 0 min 64 W/m 12,9 km/h (3 Bft) 100,00 %
09.12.2021 12:36 4,3 C 3,9 C 1,7 C 91 % 1004,5 hPa 0,0 l/m 0 min 0 min 67 W/m 9,7 km/h (2 Bft) 100,00 %
09.12.2021 12:38 4,3 C 3,9 C 1,7 C 91 % 1004,5 hPa 0,0 l/m 0 min 0 min 65 W/m 9,7 km/h (2 Bft) 97,87 %
09.12.2021 12:40 4,3 C 3,9 C 1,7 C 91 % 1004,5 hPa 0,0 l/m 0 min 0 min 61 W/m 9,7 km/h (2 Bft) 100,00 %
09.12.2021 12:42 4,3 C 3,9 C 1,7 C 91 % 1004,5 hPa 0,0 l/m 0 min 0 min 60 W/m 9,7 km/h (2 Bft) 100,00 %
09.12.2021 12:44 4,3 C 3,9 C 1,7 C 91 % 1004,6 hPa 0,0 l/m 0 min 0 min 62 W/m 12,9 km/h (3 Bft) 95,92 %
09.12.2021 12:46 4,3 C 3,9 C 1,7 C 91 % 1004,5 hPa 0,0 l/m 0 min 0 min 64 W/m 12,9 km/h (3 Bft) 95,74 %
09.12.2021 12:48 4,3 C 3,9 C 1,7 C 91 % 1004,5 hPa 0,0 l/m 0 min 0 min 56 W/m 6,4 km/h (2 Bft) 95,12 %
09.12.2021 12:50 4,3 C 3,9 C 1,7 C 90 % 1004,5 hPa 0,0 l/m 0 min 0 min 51 W/m 12,9 km/h (3 Bft) 98,00 %
09.12.2021 12:52 4,3 C 3,9 C 1,7 C 90 % 1004,4 hPa 0,0 l/m 0 min 0 min 53 W/m 12,9 km/h (3 Bft) 97,87 %
09.12.2021 12:54 4,3 C 3,9 C 1,7 C 91 % 1004,4 hPa 0,0 l/m 0 min 0 min 57 W/m 9,7 km/h (2 Bft) 93,88 %
09.12.2021 12:56 4,3 C 3,9 C 1,7 C 91 % 1004,4 hPa 0,0 l/m 0 min 0 min 62 W/m 12,9 km/h (3 Bft) 95,74 %
09.12.2021 12:58 4,3 C 3,9 C 1,7 C 90 % 1004,4 hPa 0,0 l/m 0 min 0 min 61 W/m 6,4 km/h (2 Bft) 97,87 %
09.12.2021 13:00 4,3 C 3,9 C 1,7 C 90 % 1004,4 hPa 0,0 l/m 0 min 0 min 57 W/m 9,7 km/h (2 Bft) 95,12 %
09.12.2021 13:02 4,3 C 3,9 C 1,7 C 90 % 1004,4 hPa 0,0 l/m 0 min 0 min 51 W/m 6,4 km/h (2 Bft) 94,00 %
09.12.2021 13:04 4,3 C 3,9 C 1,7 C 90 % 1004,3 hPa 0,0 l/m 0 min 0 min 48 W/m 6,4 km/h (2 Bft) 91,84 %
09.12.2021 13:06 4,3 C 3,9 C 1,7 C 90 % 1004,4 hPa 0,0 l/m 0 min 0 min 43 W/m 9,7 km/h (2 Bft) 93,62 %
09.12.2021 13:08 4,3 C 3,9 C 1,7 C 90 % 1004,4 hPa 0,0 l/m 0 min 0 min 45 W/m 9,7 km/h (2 Bft) 95,12 %
09.12.2021 13:10 4,3 C 3,9 C 1,7 C 90 % 1004,3 hPa 0,0 l/m 0 min 0 min 47 W/m 6,4 km/h (2 Bft) 95,74 %
09.12.2021 13:12 4,4 C 3,9 C 1,7 C 90 % 1004,4 hPa 0,0 l/m 0 min 0 min 43 W/m 9,7 km/h (2 Bft) 92,00 %
09.12.2021 13:14 4,4 C 3,9 C 1,7 C 90 % 1004,4 hPa 0,0 l/m 0 min 0 min 39 W/m 12,9 km/h (3 Bft) 96,00 %
09.12.2021 13:16 4,4 C 3,9 C 1,7 C 90 % 1004,3 hPa 0,0 l/m 0 min 0 min 38 W/m 6,4 km/h (2 Bft) 93,48 %
09.12.2021 13:18 4,4 C 3,9 C 1,7 C 90 % 1004,4 hPa 0,0 l/m 0 min 0 min 41 W/m 9,7 km/h (2 Bft) 95,24 %
09.12.2021 13:20 4,4 C 3,9 C 1,7 C 90 % 1004,4 hPa 0,0 l/m 0 min 0 min 40 W/m 6,4 km/h (2 Bft) 95,92 %
09.12.2021 13:22 4,4 C 3,9 C 1,7 C 90 % 1004,4 hPa 0,0 l/m 0 min 0 min 40 W/m 6,4 km/h (2 Bft) 92,00 %
09.12.2021 13:24 4,4 C 3,9 C 1,7 C 90 % 1004,4 hPa 0,0 l/m 0 min 0 min 43 W/m 6,4 km/h (2 Bft) 95,74 %
09.12.2021 13:26 4,4 C 3,9 C 1,7 C 90 % 1004,4 hPa 0,0 l/m 0 min 0 min 42 W/m 6,4 km/h (2 Bft) 93,48 %
09.12.2021 13:28 4,4 C 3,9 C 1,7 C 90 % 1004,4 hPa 0,0 l/m 0 min 0 min 36 W/m 6,4 km/h (2 Bft) 95,24 %
09.12.2021 13:30 4,4 C 3,9 C 1,7 C 90 % 1004,4 hPa 0,0 l/m 0 min 0 min 34 W/m 6,4 km/h (2 Bft) 95,92 %
09.12.2021 13:32 4,4 C 3,9 C 1,7 C 90 % 1004,4 hPa 0,0 l/m 0 min 0 min 34 W/m 6,4 km/h (2 Bft) 95,74 %
09.12.2021 13:34 4,4 C 3,9 C 1,7 C 90 % 1004,4 hPa 0,0 l/m 0 min 0 min 41 W/m 9,7 km/h (2 Bft) 96,00 %
09.12.2021 13:36 4,4 C 3,9 C 1,7 C 90 % 1004,4 hPa 0,0 l/m 0 min 0 min 49 W/m 16,1 km/h (3 Bft) 95,74 %
09.12.2021 13:38 4,5 C 4,4 C 1,7 C 90 % 1004,4 hPa 0,0 l/m 0 min 0 min 45 W/m 19,3 km/h (3 Bft) 100,00 %
09.12.2021 13:40 4,5 C 4,4 C 1,7 C 89 % 1004,4 hPa 0,0 l/m 0 min 0 min 39 W/m 16,1 km/h (3 Bft) 97,87 %
09.12.2021 13:42 4,6 C 4,4 C 2,2 C 89 % 1004,4 hPa 0,0 l/m 0 min 0 min 29 W/m 16,1 km/h (3 Bft) 97,96 %
09.12.2021 13:44 4,6 C 4,4 C 2,2 C 89 % 1004,4 hPa 0,0 l/m 0 min 0 min 25 W/m 25,7 km/h (4 Bft) 98,00 %
09.12.2021 13:46 4,6 C 4,4 C 2,2 C 89 % 1004,4 hPa 0,0 l/m 0 min 0 min 27 W/m 19,3 km/h (3 Bft) 97,87 %
09.12.2021 13:48 4,6 C 4,4 C 2,2 C 89 % 1004,4 hPa 0,0 l/m 0 min 0 min 32 W/m 16,1 km/h (3 Bft) 97,56 %
09.12.2021 13:50 4,7 C 4,4 C 2,2 C 89 % 1004,4 hPa 0,0 l/m 0 min 0 min 33 W/m 12,9 km/h (3 Bft) 96,00 %
09.12.2021 13:52 4,7 C 4,4 C 2,2 C 89 % 1004,4 hPa 0,0 l/m 0 min 0 min 36 W/m 19,3 km/h (3 Bft) 97,96 %
09.12.2021 13:54 4,7 C 4,4 C 2,2 C 88 % 1004,4 hPa 0,0 l/m 0 min 0 min 32 W/m 16,1 km/h (3 Bft) 97,87 %
09.12.2021 13:56 4,7 C 4,4 C 2,2 C 88 % 1004,4 hPa 0,0 l/m 0 min 0 min 29 W/m 12,9 km/h (3 Bft) 100,00 %
09.12.2021 13:58 4,7 C 4,4 C 2,2 C 88 % 1004,4 hPa 0,0 l/m 0 min 0 min 26 W/m 12,9 km/h (3 Bft) 97,56 %
09.12.2021 14:00 4,8 C 4,4 C 2,2 C 88 % 1004,4 hPa 0,0 l/m 0 min 0 min 27 W/m 16,1 km/h (3 Bft) 95,74 %
09.12.2021 14:02 4,7 C 4,4 C 2,2 C 88 % 1004,4 hPa 0,0 l/m 0 min 0 min 27 W/m 19,3 km/h (3 Bft) 96,00 %
09.12.2021 14:04 4,7 C 4,4 C 2,2 C 88 % 1004,4 hPa 0,0 l/m 0 min 0 min 21 W/m 22,5 km/h (4 Bft) 100,00 %
09.12.2021 14:06 4,7 C 4,4 C 1,7 C 88 % 1004,4 hPa 0,0 l/m 0 min 0 min 17 W/m 19,3 km/h (3 Bft) 100,00 %
09.12.2021 14:08 4,7 C 4,4 C 1,7 C 88 % 1004,4 hPa 0,0 l/m 0 min 0 min 18 W/m 16,1 km/h (3 Bft) 100,00 %
09.12.2021 14:10 4,7 C 3,9 C 1,7 C 88 % 1004,4 hPa 0,0 l/m 0 min 0 min 22 W/m 25,7 km/h (4 Bft) 100,00 %
09.12.2021 14:12 4,7 C 3,9 C 1,7 C 88 % 1004,4 hPa 0,0 l/m 0 min 0 min 25 W/m 16,1 km/h (3 Bft) 100,00 %
09.12.2021 14:14 4,7 C 3,9 C 1,7 C 88 % 1004,3 hPa 0,0 l/m 0 min 0 min 26 W/m 22,5 km/h (4 Bft) 100,00 %
09.12.2021 14:16 4,6 C 3,9 C 1,7 C 88 % 1004,3 hPa 0,0 l/m 0 min 0 min 28 W/m 19,3 km/h (3 Bft) 97,96 %
09.12.2021 14:18 4,6 C 3,9 C 1,7 C 89 % 1004,3 hPa 0,0 l/m 0 min 0 min 49 W/m 12,9 km/h (3 Bft) 100,00 %
09.12.2021 14:20 4,6 C 3,9 C 1,7 C 89 % 1004,3 hPa 0,0 l/m 0 min 0 min 51 W/m 19,3 km/h (3 Bft) 100,00 %
09.12.2021 14:22 4,5 C 3,9 C 1,7 C 89 % 1004,3 hPa 0,0 l/m 0 min 0 min 38 W/m 12,9 km/h (3 Bft) 100,00 %
09.12.2021 14:24 4,5 C 3,9 C 1,7 C 89 % 1004,3 hPa 0,0 l/m 0 min 0 min 36 W/m 25,7 km/h (4 Bft) 100,00 %
09.12.2021 14:26 4,4 C 3,9 C 1,7 C 90 % 1004,3 hPa 0,0 l/m 0 min 0 min 39 W/m 16,1 km/h (3 Bft) 100,00 %
09.12.2021 14:28 4,4 C 3,9 C 1,7 C 90 % 1004,3 hPa 0,0 l/m 0 min 0 min 39 W/m 12,9 km/h (3 Bft) 100,00 %
09.12.2021 14:30 4,4 C 3,9 C 1,7 C 90 % 1004,3 hPa 0,0 l/m 0 min 0 min 32 W/m 12,9 km/h (3 Bft) 100,00 %
09.12.2021 14:32 4,4 C 3,9 C 1,1 C 90 % 1004,3 hPa 0,0 l/m 0 min 0 min 29 W/m 9,7 km/h (2 Bft) 100,00 %
09.12.2021 14:34 4,4 C 3,9 C 1,1 C 91 % 1004,3 hPa 0,0 l/m 0 min 0 min 25 W/m 12,9 km/h (3 Bft) 100,00 %
09.12.2021 14:36 4,4 C 3,9 C 1,1 C 91 % 1004,3 hPa 0,0 l/m 0 min 0 min 25 W/m 6,4 km/h (2 Bft) 100,00 %
09.12.2021 14:38 4,4 C 3,9 C 1,1 C 91 % 1004,3 hPa 0,0 l/m 0 min 0 min 30 W/m 16,1 km/h (3 Bft) 100,00 %
09.12.2021 14:40 4,3 C 3,9 C 1,1 C 91 % 1004,3 hPa 0,0 l/m 0 min 0 min 25 W/m 19,3 km/h (3 Bft) 100,00 %
09.12.2021 14:42 4,3 C 3,9 C 1,1 C 91 % 1004,3 hPa 0,0 l/m 0 min 0 min 22 W/m 9,7 km/h (2 Bft) 97,87 %
09.12.2021 14:44 4,3 C 3,9 C 1,1 C 91 % 1004,3 hPa 0,0 l/m 0 min 0 min 19 W/m 16,1 km/h (3 Bft) 100,00 %
09.12.2021 14:46 4,3 C 3,9 C 1,1 C 91 % 1004,4 hPa 0,0 l/m 0 min 0 min 19 W/m 16,1 km/h (3 Bft) 97,37 %
09.12.2021 14:48 4,3 C 3,9 C 1,7 C 91 % 1004,3 hPa 0,0 l/m 0 min 0 min 24 W/m 16,1 km/h (3 Bft) 100,00 %
09.12.2021 14:50 4,3 C 3,9 C 1,7 C 91 % 1004,3 hPa 0,0 l/m 0 min 0 min 26 W/m 12,9 km/h (3 Bft) 100,00 %
09.12.2021 14:52 4,3 C 3,9 C 1,7 C 91 % 1004,3 hPa 0,0 l/m 0 min 0 min 25 W/m 19,3 km/h (3 Bft) 97,87 %
09.12.2021 14:54 4,3 C 3,9 C 1,7 C 91 % 1004,3 hPa 0,0 l/m 0 min 0 min 22 W/m 12,9 km/h (3 Bft) 100,00 %
09.12.2021 14:56 4,3 C 3,9 C 1,7 C 91 % 1004,3 hPa 0,0 l/m 0 min 0 min 23 W/m 12,9 km/h (3 Bft) 98,00 %
09.12.2021 14:58 4,2 C 3,9 C 1,7 C 91 % 1004,3 hPa 0,0 l/m 0 min 0 min 28 W/m 16,1 km/h (3 Bft) 97,87 %
09.12.2021 15:00 4,2 C 3,9 C 1,7 C 91 % 1004,3 hPa 0,0 l/m 0 min 0 min 25 W/m 16,1 km/h (3 Bft) 100,00 %
09.12.2021 15:02 4,3 C 3,9 C 1,7 C 91 % 1004,3 hPa 0,0 l/m 0 min 0 min 23 W/m 12,9 km/h (3 Bft) 100,00 %
09.12.2021 15:04 4,3 C 3,9 C 1,7 C 91 % 1004,3 hPa 0,0 l/m 0 min 0 min 21 W/m 9,7 km/h (2 Bft) 100,00 %
09.12.2021 15:06 4,3 C 3,9 C 1,7 C 91 % 1004,3 hPa 0,0 l/m 0 min 0 min 18 W/m 12,9 km/h (3 Bft) 100,00 %
09.12.2021 15:08 4,3 C 3,9 C 1,7 C 91 % 1004,3 hPa 0,0 l/m 0 min 0 min 14 W/m 22,5 km/h (4 Bft) 100,00 %
09.12.2021 15:10 4,3 C 3,9 C 1,7 C 91 % 1004,3 hPa 0,0 l/m 0 min 0 min 12 W/m 16,1 km/h (3 Bft) 100,00 %
09.12.2021 15:12 4,3 C 3,9 C 1,7 C 91 % 1004,3 hPa 0,0 l/m 0 min 0 min 14 W/m 19,3 km/h (3 Bft) 100,00 %
09.12.2021 15:14 4,3 C 3,9 C 1,7 C 91 % 1004,2 hPa 0,0 l/m 0 min 0 min 16 W/m 16,1 km/h (3 Bft) 100,00 %
09.12.2021 15:16 4,3 C 3,9 C 1,7 C 91 % 1004,3 hPa 0,0 l/m 0 min 0 min 16 W/m 12,9 km/h (3 Bft) 100,00 %
09.12.2021 15:18 4,3 C 3,9 C 1,7 C 91 % 1004,3 hPa 0,0 l/m 0 min 0 min 15 W/m 12,9 km/h (3 Bft) 100,00 %
09.12.2021 15:20 4,3 C 3,9 C 1,7 C 91 % 1004,3 hPa 0,0 l/m 0 min 0 min 13 W/m 9,7 km/h (2 Bft) 100,00 %
09.12.2021 15:22 4,4 C 3,9 C 1,7 C 91 % 1004,3 hPa 0,0 l/m 0 min 0 min 12 W/m 16,1 km/h (3 Bft) 94,74 %
09.12.2021 15:24 4,4 C 3,9 C 1,7 C 91 % 1004,3 hPa 0,0 l/m 0 min 0 min 10 W/m 6,4 km/h (2 Bft) 97,83 %
09.12.2021 15:26 4,4 C 3,9 C 1,7 C 91 % 1004,3 hPa 0,0 l/m 0 min 0 min 9 W/m 9,7 km/h (2 Bft) 100,00 %
09.12.2021 15:28 4,4 C 3,9 C 1,7 C 91 % 1004,3 hPa 0,0 l/m 0 min 0 min 9 W/m 12,9 km/h (3 Bft) 100,00 %
09.12.2021 15:30 4,4 C 3,9 C 1,7 C 90 % 1004,3 hPa 0,0 l/m 0 min 0 min 9 W/m 12,9 km/h (3 Bft) 45,95 %
09.12.2021 15:32 4,4 C 3,9 C 1,7 C 90 % 1004,3 hPa 0,0 l/m 0 min 0 min 8 W/m 6,4 km/h (2 Bft) 92,31 %
09.12.2021 15:34 4,4 C 3,9 C 1,7 C 90 % 1004,4 hPa 0,0 l/m 0 min 0 min 11 W/m 12,9 km/h (3 Bft) 96,23 %
09.12.2021 15:36 4,4 C 3,9 C 1,7 C 90 % 1004,4 hPa 0,0 l/m 0 min 0 min 11 W/m 6,4 km/h (2 Bft) 97,96 %
09.12.2021 15:38 4,4 C 3,9 C 1,7 C 90 % 1004,4 hPa 0,0 l/m 0 min 0 min 9 W/m 9,7 km/h (2 Bft) 94,74 %
09.12.2021 15:40 4,4 C 3,9 C 1,7 C 90 % 1004,4 hPa 0,0 l/m 0 min 0 min 8 W/m 12,9 km/h (3 Bft) 93,62 %
09.12.2021 15:42 4,4 C 3,9 C 1,7 C 90 % 1004,4 hPa 0,0 l/m 0 min 0 min 7 W/m 16,1 km/h (3 Bft) 95,74 %
09.12.2021 15:44 4,4 C 3,9 C 1,7 C 90 % 1004,4 hPa 0,0 l/m 0 min 0 min 7 W/m 12,9 km/h (3 Bft) 94,34 %
09.12.2021 15:46 4,4 C 3,9 C 1,7 C 90 % 1004,4 hPa 0,0 l/m 0 min 0 min 7 W/m 12,9 km/h (3 Bft) 92,00 %
09.12.2021 15:48 4,4 C 3,9 C 1,7 C 90 % 1004,4 hPa 0,0 l/m 0 min 0 min 7 W/m 12,9 km/h (3 Bft) 89,19 %
09.12.2021 15:50 4,4 C 3,9 C 1,7 C 90 % 1004,4 hPa 0,0 l/m 0 min 0 min 6 W/m 12,9 km/h (3 Bft) 93,62 %
09.12.2021 15:52 4,4 C 3,9 C 1,7 C 90 % 1004,4 hPa 0,0 l/m 0 min 0 min 5 W/m 16,1 km/h (3 Bft) 94,34 %
09.12.2021 15:54 4,4 C 3,9 C 1,7 C 90 % 1004,4 hPa 0,0 l/m 0 min 0 min 5 W/m 16,1 km/h (3 Bft) 94,00 %
09.12.2021 15:56 4,4 C 3,9 C 1,7 C 90 % 1004,4 hPa 0,0 l/m 0 min 0 min 5 W/m 12,9 km/h (3 Bft) 92,11 %
09.12.2021 15:58 4,4 C 3,9 C 1,7 C 90 % 1004,4 hPa 0,0 l/m 0 min 0 min 5 W/m 12,9 km/h (3 Bft) 93,62 %
09.12.2021 16:00 4,4 C 3,9 C 1,7 C 90 % 1004,4 hPa 0,0 l/m 0 min 0 min 3 W/m 16,1 km/h (3 Bft) 95,65 %
09.12.2021 16:02 4,4 C 3,9 C 1,7 C 90 % 1004,3 hPa 0,0 l/m 0 min 0 min 0 W/m 3,2 km/h (1 Bft) 93,62 %
09.12.2021 16:04 4,4 C 3,9 C 1,1 C 90 % 1004,3 hPa 0,0 l/m 0 min 0 min 0 W/m 0,0 km/h (0 Bft) 96,23 %
09.12.2021 16:06 4,4 C 3,9 C 1,1 C 90 % 1004,3 hPa 0,0 l/m 0 min 0 min 0 W/m 12,9 km/h (3 Bft) 94,00 %
09.12.2021 16:08 4,4 C 3,9 C 1,1 C 90 % 1004,3 hPa 0,0 l/m 0 min 0 min 0 W/m 6,4 km/h (2 Bft) 94,74 %
09.12.2021 16:10 4,4 C 3,9 C 1,1 C 91 % 1004,3 hPa 0,0 l/m 0 min 0 min 0 W/m 16,1 km/h (3 Bft) 95,74 %
09.12.2021 16:12 4,4 C 3,9 C 1,1 C 91 % 1004,3 hPa 0,0 l/m 0 min 0 min 0 W/m 9,7 km/h (2 Bft) 96,15 %
09.12.2021 16:14 4,4 C 3,9 C 1,1 C 91 % 1004,3 hPa 0,0 l/m 0 min 0 min 0 W/m 12,9 km/h (3 Bft) 96,00 %
09.12.2021 16:16 4,4 C 3,9 C 1,1 C 91 % 1004,3 hPa 0,0 l/m 0 min 0 min 0 W/m 16,1 km/h (3 Bft) 94,74 %
09.12.2021 16:18 4,4 C 3,9 C 1,1 C 91 % 1004,3 hPa 0,0 l/m 0 min 0 min 0 W/m 16,1 km/h (3 Bft) 95,74 %
09.12.2021 16:20 4,4 C 3,9 C 1,7 C 91 % 1004,4 hPa 0,0 l/m 0 min 0 min 0 W/m 16,1 km/h (3 Bft) 96,23 %
09.12.2021 16:22 4,4 C 3,9 C 1,1 C 91 % 1004,3 hPa 0,0 l/m 0 min 0 min 0 W/m 12,9 km/h (3 Bft) 97,96 %
09.12.2021 16:24 4,4 C 3,9 C 1,7 C 91 % 1004,3 hPa 0,0 l/m 0 min 0 min 0 W/m 3,2 km/h (1 Bft) 97,37 %
09.12.2021 16:26 4,4 C 3,9 C 1,7 C 91 % 1004,3 hPa 0,0 l/m 0 min 0 min 0 W/m 3,2 km/h (1 Bft) 95,74 %
09.12.2021 16:28 4,4 C 3,9 C 1,7 C 91 % 1004,3 hPa 0,0 l/m 0 min 0 min 0 W/m 12,9 km/h (3 Bft) 100,00 %
09.12.2021 16:30 4,4 C 3,9 C 1,7 C 91 % 1004,4 hPa 0,0 l/m 0 min 0 min 0 W/m 16,1 km/h (3 Bft) 96,00 %
09.12.2021 16:32 4,4 C 3,9 C 1,7 C 91 % 1004,3 hPa 0,0 l/m 0 min 0 min 0 W/m 19,3 km/h (3 Bft) 100,00 %
09.12.2021 16:34 4,4 C 3,9 C 1,7 C 91 % 1004,3 hPa 0,0 l/m 0 min 0 min 0 W/m 16,1 km/h (3 Bft) 55,56 %
09.12.2021 16:36 4,4 C 3,9 C 1,7 C 91 % 1004,3 hPa 0,0 l/m 0 min 0 min 0 W/m 19,3 km/h (3 Bft) 100,00 %
09.12.2021 16:38 4,4 C 3,9 C 1,7 C 91 % 1004,3 hPa 0,0 l/m 0 min 0 min 0 W/m 12,9 km/h (3 Bft) 98,00 %
09.12.2021 16:40 4,4 C 3,9 C 1,7 C 91 % 1004,3 hPa 0,0 l/m 0 min 0 min 0 W/m 9,7 km/h (2 Bft) 100,00 %
09.12.2021 16:42 4,4 C 3,9 C 1,7 C 91 % 1004,3 hPa 0,0 l/m 0 min 0 min 0 W/m 16,1 km/h (3 Bft) 100,00 %
09.12.2021 16:44 4,4 C 3,9 C 1,7 C 91 % 1004,3 hPa 0,0 l/m 0 min 0 min 0 W/m 6,4 km/h (2 Bft) 100,00 %
09.12.2021 16:46 4,4 C 3,9 C 1,7 C 91 % 1004,2 hPa 0,0 l/m 0 min 0 min 0 W/m 9,7 km/h (2 Bft) 100,00 %
09.12.2021 16:48 4,4 C 3,9 C 1,7 C 91 % 1004,2 hPa 0,0 l/m 0 min 0 min 0 W/m 16,1 km/h (3 Bft) 100,00 %
09.12.2021 16:50 4,4 C 3,9 C 1,7 C 91 % 1004,3 hPa 0,0 l/m 0 min 0 min 0 W/m 6,4 km/h (2 Bft) 100,00 %
09.12.2021 16:52 4,4 C 3,9 C 1,7 C 91 % 1004,3 hPa 0,0 l/m 0 min 0 min 0 W/m 6,4 km/h (2 Bft) 100,00 %
09.12.2021 16:54 4,4 C 3,9 C 1,7 C 91 % 1004,3 hPa 0,0 l/m 0 min 0 min 0 W/m 12,9 km/h (3 Bft) 100,00 %
09.12.2021 16:56 4,4 C 3,9 C 1,7 C 91 % 1004,3 hPa 0,0 l/m 0 min 0 min 0 W/m 6,4 km/h (2 Bft) 97,87 %
09.12.2021 16:58 4,4 C 3,9 C 1,7 C 91 % 1004,2 hPa 0,0 l/m 0 min 0 min 0 W/m 9,7 km/h (2 Bft) 100,00 %
09.12.2021 17:00 4,4 C 3,9 C 1,7 C 91 % 1004,1 hPa 0,0 l/m 0 min 0 min 0 W/m 12,9 km/h (3 Bft) 98,00 %
09.12.2021 17:02 4,4 C 3,9 C 1,7 C 91 % 1004,1 hPa 0,0 l/m 0 min 0 min 0 W/m 9,7 km/h (2 Bft) 100,00 %
09.12.2021 17:04 4,4 C 3,9 C 1,7 C 91 % 1004,1 hPa 0,0 l/m 0 min 0 min 0 W/m 6,4 km/h (2 Bft) 100,00 %
09.12.2021 17:06 4,4 C 3,9 C 1,7 C 91 % 1004,2 hPa 0,0 l/m 0 min 0 min 0 W/m 9,7 km/h (2 Bft) 97,87 %
09.12.2021 17:08 4,4 C 3,9 C 1,7 C 91 % 1004,1 hPa 0,0 l/m 0 min 0 min 0 W/m 6,4 km/h (2 Bft) 100,00 %
09.12.2021 17:10 4,4 C 3,9 C 1,7 C 91 % 1004,1 hPa 0,0 l/m 0 min 0 min 0 W/m 16,1 km/h (3 Bft) 100,00 %
09.12.2021 17:12 4,4 C 3,9 C 1,7 C 91 % 1004,2 hPa 0,0 l/m 0 min 0 min 0 W/m 16,1 km/h (3 Bft) 100,00 %
09.12.2021 17:14 4,4 C 3,9 C 1,7 C 91 % 1004,2 hPa 0,0 l/m 0 min 0 min 0 W/m 12,9 km/h (3 Bft) 100,00 %
09.12.2021 17:16 4,4 C 3,9 C 1,7 C 91 % 1004,2 hPa 0,0 l/m 0 min 0 min 0 W/m 16,1 km/h (3 Bft) 100,00 %
09.12.2021 17:18 4,4 C 3,9 C 1,7 C 91 % 1004,2 hPa 0,0 l/m 0 min 0 min 0 W/m 19,3 km/h (3 Bft) 98,11 %
09.12.2021 17:20 4,4 C 3,9 C 1,7 C 91 % 1004,2 hPa 0,0 l/m 0 min 0 min 0 W/m 12,9 km/h (3 Bft) 100,00 %
09.12.2021 17:22 4,4 C 3,9 C 1,7 C 91 % 1004,2 hPa 0,0 l/m 0 min 0 min 0 W/m 12,9 km/h (3 Bft) 100,00 %
09.12.2021 17:24 4,4 C 3,9 C 1,7 C 91 % 1004,2 hPa 0,0 l/m 0 min 0 min 0 W/m 12,9 km/h (3 Bft) 100,00 %
09.12.2021 17:26 4,4 C 3,9 C 1,7 C 91 % 1004,2 hPa 0,0 l/m 0 min 0 min 0 W/m 9,7 km/h (2 Bft) 97,62 %
09.12.2021 17:28 4,4 C 3,9 C 1,7 C 91 % 1004,2 hPa 0,0 l/m 0 min 0 min 0 W/m 12,9 km/h (3 Bft) 97,87 %
09.12.2021 17:30 4,4 C 3,9 C 1,1 C 92 % 1004,2 hPa 0,0 l/m 0 min 0 min 0 W/m 9,7 km/h (2 Bft) 97,87 %
09.12.2021 17:32 4,4 C 3,9 C 1,1 C 92 % 1004,2 hPa 0,0 l/m 0 min 2 min 0 W/m 16,1 km/h (3 Bft) 97,96 %
09.12.2021 17:34 4,4 C 3,9 C 1,1 C 92 % 1004,1 hPa 0,0 l/m 0 min 0 min 0 W/m 16,1 km/h (3 Bft) 97,96 %
09.12.2021 17:36 4,4 C 3,9 C 1,1 C 92 % 1004,1 hPa 0,0 l/m 0 min 0 min 0 W/m 12,9 km/h (3 Bft) 97,87 %
09.12.2021 17:38 4,4 C 3,9 C 1,1 C 92 % 1004,1 hPa 0,0 l/m 0 min 0 min 0 W/m 12,9 km/h (3 Bft) 97,87 %
09.12.2021 17:40 4,4 C 3,9 C 1,1 C 92 % 1004,1 hPa 0,0 l/m 0 min 0 min 0 W/m 16,1 km/h (3 Bft) 97,87 %
09.12.2021 17:42 4,4 C 3,3 C 1,1 C 92 % 1004,0 hPa 0,0 l/m 0 min 0 min 0 W/m 12,9 km/h (3 Bft) 98,11 %
09.12.2021 17:44 4,4 C 3,3 C 1,1 C 92 % 1004,0 hPa 0,0 l/m 0 min 0 min 0 W/m 12,9 km/h (3 Bft) 97,37 %
09.12.2021 17:46 4,3 C 3,3 C 1,1 C 92 % 1004,0 hPa 0,0 l/m 0 min 0 min 0 W/m 22,5 km/h (4 Bft) 97,83 %
09.12.2021 17:48 4,3 C 3,3 C 1,1 C 92 % 1004,0 hPa 0,0 l/m 0 min 0 min 0 W/m 19,3 km/h (3 Bft) 98,00 %
09.12.2021 17:50 4,3 C 3,3 C 1,1 C 93 % 1004,0 hPa 0,0 l/m 0 min 0 min 0 W/m 6,4 km/h (2 Bft) 98,11 %
09.12.2021 17:52 4,3 C 3,3 C 1,1 C 93 % 1004,1 hPa 0,0 l/m 0 min 0 min 0 W/m 9,7 km/h (2 Bft) 97,37 %
09.12.2021 17:54 4,3 C 3,3 C 1,1 C 93 % 1004,0 hPa 0,0 l/m 0 min 0 min 0 W/m 12,9 km/h (3 Bft) 95,92 %
09.12.2021 17:56 4,3 C 3,3 C 1,1 C 93 % 1004,1 hPa 0,0 l/m 0 min 0 min 0 W/m 12,9 km/h (3 Bft) 97,87 %
09.12.2021 17:58 4,3 C 3,3 C 1,1 C 93 % 1004,1 hPa 0,0 l/m 0 min 0 min 0 W/m 12,9 km/h (3 Bft) 98,11 %
09.12.2021 18:00 4,3 C 3,3 C 1,1 C 93 % 1004,1 hPa 0,0 l/m 0 min 0 min 0 W/m 12,9 km/h (3 Bft) 100,00 %
09.12.2021 18:02 4,3 C 3,3 C 1,1 C 93 % 1004,1 hPa 0,0 l/m 0 min 0 min 0 W/m 9,7 km/h (2 Bft) 100,00 %
09.12.2021 18:04 4,3 C 3,3 C 1,1 C 93 % 1004,1 hPa 0,0 l/m 0 min 0 min 0 W/m 12,9 km/h (3 Bft) 100,00 %
09.12.2021 18:08 4,3 C 3,3 C 1,1 C 93 % 1004,0 hPa 0,0 l/m 0 min 0 min 0 W/m 16,1 km/h (3 Bft) 97,85 %
09.12.2021 18:10 4,3 C 3,3 C 1,1 C 93 % 1004,0 hPa 0,0 l/m 0 min 0 min 0 W/m 19,3 km/h (3 Bft) 100,00 %
09.12.2021 18:12 4,2 C 3,3 C 1,1 C 93 % 1004,1 hPa 0,0 l/m 0 min 0 min 0 W/m 12,9 km/h (3 Bft) 100,00 %
09.12.2021 18:14 4,2 C 3,3 C 1,1 C 94 % 1004,1 hPa 0,0 l/m 0 min 0 min 0 W/m 12,9 km/h (3 Bft) 100,00 %
09.12.2021 18:16 4,2 C 3,3 C 1,1 C 94 % 1004,1 hPa 0,0 l/m 0 min 0 min 0 W/m 6,4 km/h (2 Bft) 100,00 %
09.12.2021 18:18 4,2 C 3,3 C 1,1 C 94 % 1004,1 hPa 0,0 l/m 0 min 0 min 0 W/m 9,7 km/h (2 Bft) 97,83 %
09.12.2021 18:20 4,2 C 3,3 C 1,1 C 94 % 1004,0 hPa 0,0 l/m 0 min 0 min 0 W/m 16,1 km/h (3 Bft) 100,00 %
09.12.2021 18:22 4,2 C 3,3 C 1,1 C 94 % 1004,0 hPa 0,0 l/m 0 min 0 min 0 W/m 16,1 km/h (3 Bft) 91,49 %
09.12.2021 18:24 4,2 C 3,3 C 1,1 C 94 % 1004,0 hPa 0,0 l/m 0 min 0 min 0 W/m 6,4 km/h (2 Bft) 97,87 %
09.12.2021 18:26 4,2 C 3,3 C 1,1 C 94 % 1004,0 hPa 0,0 l/m 0 min 0 min 0 W/m 9,7 km/h (2 Bft) 97,87 %
09.12.2021 18:28 4,2 C 3,3 C 1,1 C 94 % 1004,1 hPa 0,0 l/m 0 min 0 min 0 W/m 9,7 km/h (2 Bft) 95,74 %
09.12.2021 18:30 4,2 C 3,3 C 1,1 C 94 % 1004,1 hPa 0,0 l/m 0 min 0 min 0 W/m 12,9 km/h (3 Bft) 95,65 %
09.12.2021 18:32 4,2 C 3,3 C 1,1 C 94 % 1004,1 hPa 0,0 l/m 0 min 0 min 0 W/m 9,7 km/h (2 Bft) 95,74 %
09.12.2021 18:34 4,2 C 3,3 C 1,1 C 94 % 1004,1 hPa 0,0 l/m 0 min 0 min 0 W/m 19,3 km/h (3 Bft) 95,74 %
09.12.2021 18:36 4,2 C 3,3 C 1,1 C 94 % 1004,0 hPa 0,0 l/m 0 min 0 min 0 W/m 12,9 km/h (3 Bft) 95,74 %
09.12.2021 18:38 4,2 C 3,3 C 1,1 C 94 % 1004,1 hPa 0,0 l/m 0 min 0 min 0 W/m 12,9 km/h (3 Bft) 91,49 %
09.12.2021 18:40 4,2 C 3,3 C 1,1 C 94 % 1004,1 hPa 0,0 l/m 0 min 0 min 0 W/m 6,4 km/h (2 Bft) 93,62 %
09.12.2021 18:42 4,2 C 3,3 C 1,1 C 94 % 1004,1 hPa 0,0 l/m 0 min 0 min 0 W/m 12,9 km/h (3 Bft) 95,65 %
09.12.2021 18:44 4,2 C 3,3 C 1,1 C 94 % 1004,1 hPa 0,0 l/m 0 min 0 min 0 W/m 9,7 km/h (2 Bft) 95,74 %
09.12.2021 18:46 4,2 C 3,3 C 1,1 C 94 % 1004,1 hPa 0,0 l/m 0 min 0 min 0 W/m 6,4 km/h (2 Bft) 95,74 %
09.12.2021 18:48 4,1 C 3,3 C 1,1 C 94 % 1004,1 hPa 0,0 l/m 0 min 0 min 0 W/m 9,7 km/h (2 Bft) 95,74 %
09.12.2021 18:50 4,2 C 3,3 C 1,1 C 94 % 1004,1 hPa 0,0 l/m 0 min 0 min 0 W/m 12,9 km/h (3 Bft) 93,62 %
09.12.2021 18:52 4,1 C 3,3 C 1,1 C 94 % 1004,1 hPa 0,0 l/m 0 min 0 min 0 W/m 6,4 km/h (2 Bft) 95,74 %
09.12.2021 18:54 4,1 C 3,3 C 1,1 C 94 % 1004,1 hPa 0,0 l/m 0 min 0 min 0 W/m 9,7 km/h (2 Bft) 93,48 %
09.12.2021 18:56 4,1 C 3,3 C 1,1 C 94 % 1004,1 hPa 0,0 l/m 0 min 0 min 0 W/m 12,9 km/h (3 Bft) 95,74 %
09.12.2021 18:58 4,1 C 3,3 C 1,1 C 94 % 1004,1 hPa 0,0 l/m 0 min 0 min 0 W/m 6,4 km/h (2 Bft) 93,62 %
09.12.2021 19:00 4,1 C 3,3 C 1,1 C 94 % 1004,1 hPa 0,0 l/m 0 min 0 min 0 W/m 6,4 km/h (2 Bft) 95,74 %
09.12.2021 19:02 4,1 C 3,3 C 1,1 C 95 % 1004,1 hPa 0,0 l/m 0 min 0 min 0 W/m 6,4 km/h (2 Bft) 100,00 %
09.12.2021 19:04 4,1 C 3,3 C 1,1 C 95 % 1004,1 hPa 0,0 l/m 0 min 0 min 0 W/m 12,9 km/h (3 Bft) 97,87 %
09.12.2021 19:06 4,1 C 3,3 C 1,1 C 95 % 1004,1 hPa 0,0 l/m 0 min 0 min 0 W/m 3,2 km/h (1 Bft) 97,83 %
09.12.2021 19:08 4,1 C 3,3 C 1,1 C 95 % 1004,1 hPa 0,0 l/m 0 min 0 min 0 W/m 9,7 km/h (2 Bft) 95,74 %
09.12.2021 19:10 4,1 C 3,3 C 1,1 C 95 % 1004,0 hPa 0,0 l/m 0 min 0 min 0 W/m 6,4 km/h (2 Bft) 95,74 %
09.12.2021 19:12 4,1 C 3,3 C 1,1 C 95 % 1004,1 hPa 0,0 l/m 0 min 0 min 0 W/m 3,2 km/h (1 Bft) 97,87 %
09.12.2021 19:14 4,1 C 3,3 C 1,1 C 95 % 1004,1 hPa 0,0 l/m 0 min 0 min 0 W/m 9,7 km/h (2 Bft) 97,87 %
09.12.2021 19:16 4,1 C 3,3 C 1,1 C 95 % 1004,1 hPa 0,0 l/m 0 min 0 min 0 W/m 3,2 km/h (1 Bft) 95,74 %
09.12.2021 19:18 4,1 C 3,3 C 1,1 C 95 % 1004,1 hPa 0,0 l/m 0 min 0 min 0 W/m 6,4 km/h (2 Bft) 100,00 %
09.12.2021 19:20 4,1 C 3,3 C 1,1 C 95 % 1004,1 hPa 0,0 l/m 0 min 0 min 0 W/m 6,4 km/h (2 Bft) 95,74 %
09.12.2021 19:22 4,1 C 3,3 C 1,1 C 95 % 1004,2 hPa 0,0 l/m 0 min 0 min 0 W/m 3,2 km/h (1 Bft) 97,87 %
09.12.2021 19:24 4,1 C 3,3 C 1,1 C 95 % 1004,1 hPa 0,0 l/m 0 min 0 min 0 W/m 6,4 km/h (2 Bft) 97,87 %
09.12.2021 19:26 4,1 C 3,3 C 1,1 C 95 % 1004,1 hPa 0,0 l/m 0 min 0 min 0 W/m 3,2 km/h (1 Bft) 95,74 %
09.12.2021 19:28 4,1 C 3,3 C 1,1 C 95 % 1004,1 hPa 0,0 l/m 0 min 0 min 0 W/m 3,2 km/h (1 Bft) 97,87 %
09.12.2021 19:30 4,1 C 3,3 C 1,1 C 95 % 1004,1 hPa 0,0 l/m 0 min 0 min 0 W/m 3,2 km/h (1 Bft) 95,65 %
09.12.2021 19:32 4,1 C 3,3 C 1,1 C 95 % 1004,1 hPa 0,0 l/m 0 min 0 min 0 W/m 6,4 km/h (2 Bft) 95,74 %
09.12.2021 19:34 4,1 C 3,3 C 1,1 C 95 % 1004,1 hPa 0,0 l/m 0 min 0 min 0 W/m 3,2 km/h (1 Bft) 97,87 %
09.12.2021 19:36 4,1 C 3,3 C 1,1 C 95 % 1004,1 hPa 0,0 l/m 0 min 0 min 0 W/m 6,4 km/h (2 Bft) 97,87 %
09.12.2021 19:38 4,1 C 3,3 C 1,7 C 95 % 1004,1 hPa 0,0 l/m 0 min 0 min 0 W/m 9,7 km/h (2 Bft) 97,87 %
09.12.2021 19:40 4,1 C 3,3 C 1,7 C 95 % 1004,1 hPa 0,0 l/m 0 min 0 min 0 W/m 6,4 km/h (2 Bft) 97,83 %
09.12.2021 19:42 4,1 C 3,3 C 1,7 C 95 % 1004,1 hPa 0,0 l/m 0 min 0 min 0 W/m 6,4 km/h (2 Bft) 95,74 %
09.12.2021 19:44 4,1 C 3,3 C 1,7 C 95 % 1004,1 hPa 0,0 l/m 0 min 0 min 0 W/m 9,7 km/h (2 Bft) 95,74 %
09.12.2021 19:46 4,1 C 3,3 C 1,7 C 95 % 1004,1 hPa 0,0 l/m 0 min 0 min 0 W/m 6,4 km/h (2 Bft) 95,74 %
09.12.2021 19:48 4,1 C 3,3 C 1,7 C 95 % 1004,1 hPa 0,0 l/m 0 min 0 min 0 W/m 12,9 km/h (3 Bft) 93,62 %
09.12.2021 19:50 4,1 C 3,3 C 1,7 C 95 % 1004,1 hPa 0,0 l/m 0 min 0 min 0 W/m 9,7 km/h (2 Bft) 97,87 %
09.12.2021 19:52 4,1 C 3,3 C 1,7 C 95 % 1004,1 hPa 0,0 l/m 0 min 0 min 0 W/m 6,4 km/h (2 Bft) 97,83 %
09.12.2021 19:54 4,1 C 3,3 C 1,7 C 95 % 1004,1 hPa 0,0 l/m 0 min 0 min 0 W/m 6,4 km/h (2 Bft) 100,00 %
09.12.2021 19:56 4,1 C 3,9 C 1,7 C 95 % 1004,1 hPa 0,0 l/m 0 min 0 min 0 W/m 6,4 km/h (2 Bft) 97,87 %
09.12.2021 19:58 4,1 C 3,9 C 1,7 C 95 % 1004,1 hPa 0,0 l/m 0 min 0 min 0 W/m 9,7 km/h (2 Bft) 100,00 %
09.12.2021 20:00 4,1 C 3,9 C 1,7 C 95 % 1004,1 hPa 0,0 l/m 0 min 2 min 0 W/m 6,4 km/h (2 Bft) 100,00 %
09.12.2021 20:02 4,1 C 3,3 C 1,1 C 95 % 1004,0 hPa 0,0 l/m 0 min 2 min 0 W/m 6,4 km/h (2 Bft) 97,87 %
09.12.2021 20:04 4,1 C 3,3 C 1,1 C 95 % 1004,0 hPa 0,0 l/m 0 min 2 min 0 W/m 6,4 km/h (2 Bft) 97,83 %
09.12.2021 20:09 4,1 C 3,3 C 1,1 C 95 % 1004,0 hPa 0,2 l/m 0 min 5 min 0 W/m 6,4 km/h (2 Bft) 98,41 %
09.12.2021 20:10 4,1 C 3,3 C 1,1 C 95 % 1004,0 hPa 0,0 l/m 0 min 1 min 0 W/m 3,2 km/h (1 Bft) 100,00 %
09.12.2021 20:12 4,1 C 3,3 C 1,1 C 95 % 1004,0 hPa 0,0 l/m 0 min 0 min 0 W/m 3,2 km/h (1 Bft) 100,00 %
09.12.2021 20:14 4,1 C 3,3 C 1,1 C 95 % 1004,0 hPa 0,0 l/m 0 min 0 min 0 W/m 6,4 km/h (2 Bft) 100,00 %
09.12.2021 20:16 4,1 C 3,3 C 1,1 C 95 % 1003,9 hPa 0,0 l/m 0 min 2 min 0 W/m 6,4 km/h (2 Bft) 100,00 %
09.12.2021 20:18 4,2 C 3,3 C 1,1 C 95 % 1003,9 hPa 0,0 l/m 0 min 2 min 0 W/m 6,4 km/h (2 Bft) 100,00 %
09.12.2021 20:20 4,2 C 3,3 C 1,1 C 95 % 1003,8 hPa 0,2 l/m 0 min 2 min 0 W/m 6,4 km/h (2 Bft) 100,00 %
09.12.2021 20:22 4,2 C 3,3 C 1,1 C 95 % 1003,8 hPa 0,0 l/m 0 min 0 min 0 W/m 6,4 km/h (2 Bft) 100,00 %
09.12.2021 20:24 4,2 C 3,3 C 1,1 C 95 % 1003,8 hPa 0,0 l/m 0 min 0 min 0 W/m 3,2 km/h (1 Bft) 100,00 %
09.12.2021 20:26 4,1 C 3,3 C 1,1 C 95 % 1003,8 hPa 0,0 l/m 0 min 0 min 0 W/m 12,9 km/h (3 Bft) 97,87 %
09.12.2021 20:28 4,1 C 3,3 C 1,1 C 95 % 1003,9 hPa 0,0 l/m 0 min 0 min 0 W/m 6,4 km/h (2 Bft) 100,00 %
09.12.2021 20:30 4,1 C 3,3 C 1,1 C 95 % 1003,9 hPa 0,0 l/m 0 min 0 min 0 W/m 3,2 km/h (1 Bft) 100,00 %
09.12.2021 20:32 4,1 C 3,3 C 1,1 C 95 % 1003,8 hPa 0,0 l/m 0 min 0 min 0 W/m 3,2 km/h (1 Bft) 97,87 %
09.12.2021 20:34 4,1 C 3,3 C 1,1 C 95 % 1003,9 hPa 0,0 l/m 0 min 0 min 0 W/m 6,4 km/h (2 Bft) 95,74 %
09.12.2021 20:36 4,1 C 3,3 C 1,1 C 95 % 1003,8 hPa 0,0 l/m 0 min 0 min 0 W/m 6,4 km/h (2 Bft) 97,87 %
09.12.2021 20:38 4,1 C 3,3 C 1,1 C 95 % 1003,8 hPa 0,0 l/m 0 min 0 min 0 W/m 6,4 km/h (2 Bft) 100,00 %
09.12.2021 20:40 4,1 C 3,3 C 1,1 C 95 % 1003,8 hPa 0,0 l/m 0 min 0 min 0 W/m 6,4 km/h (2 Bft) 97,87 %
09.12.2021 20:42 4,1 C 3,3 C 1,1 C 95 % 1003,8 hPa 0,0 l/m 0 min 0 min 0 W/m 6,4 km/h (2 Bft) 100,00 %
09.12.2021 20:47 4,1 C 3,3 C 1,1 C 95 % 1003,7 hPa 0,0 l/m 0 min 0 min 0 W/m 12,9 km/h (3 Bft) 98,00 %
09.12.2021 20:48 4,1 C 3,3 C 1,1 C 95 % 1003,7 hPa 0,0 l/m 0 min 0 min 0 W/m 6,4 km/h (2 Bft) 100,00 %
09.12.2021 20:50 4,1 C 3,3 C 1,1 C 95 % 1003,8 hPa 0,0 l/m 0 min 0 min 0 W/m 6,4 km/h (2 Bft) 97,83 %
09.12.2021 20:52 4,1 C 3,3 C 1,1 C 95 % 1003,7 hPa 0,0 l/m 0 min 0 min 0 W/m 6,4 km/h (2 Bft) 97,73 %
09.12.2021 20:54 4,1 C 3,3 C 1,1 C 95 % 1003,7 hPa 0,0 l/m 0 min 0 min 0 W/m 6,4 km/h (2 Bft) 97,87 %
09.12.2021 20:56 4,1 C 3,3 C 1,1 C 95 % 1003,6 hPa 0,0 l/m 0 min 0 min 0 W/m 12,9 km/h (3 Bft) 97,87 %
09.12.2021 20:58 4,1 C 3,3 C 1,1 C 95 % 1003,6 hPa 0,0 l/m 0 min 0 min 0 W/m 12,9 km/h (3 Bft) 97,87 %
09.12.2021 21:00 4,1 C 3,3 C 1,1 C 95 % 1003,5 hPa 0,0 l/m 0 min 0 min 0 W/m 9,7 km/h (2 Bft) 97,87 %
09.12.2021 21:02 4,1 C 3,3 C 1,1 C 95 % 1003,5 hPa 0,0 l/m 0 min 0 min 0 W/m 6,4 km/h (2 Bft) 97,73 %
09.12.2021 21:04 4,1 C 3,3 C 1,1 C 95 % 1003,5 hPa 0,0 l/m 0 min 0 min 0 W/m 9,7 km/h (2 Bft) 95,92 %
09.12.2021 21:06 4,1 C 3,3 C 1,1 C 96 % 1003,5 hPa 0,0 l/m 0 min 0 min 0 W/m 9,7 km/h (2 Bft) 97,87 %
09.12.2021 21:08 4,1 C 3,3 C 1,1 C 96 % 1003,5 hPa 0,0 l/m 0 min 0 min 0 W/m 6,4 km/h (2 Bft) 97,87 %
09.12.2021 21:10 4,1 C 3,3 C 1,1 C 96 % 1003,5 hPa 0,0 l/m 0 min 0 min 0 W/m 6,4 km/h (2 Bft) 95,74 %
09.12.2021 21:12 4,1 C 3,3 C 1,1 C 96 % 1003,5 hPa 0,0 l/m 0 min 0 min 0 W/m 6,4 km/h (2 Bft) 97,87 %
09.12.2021 21:14 4,1 C 3,3 C 1,1 C 96 % 1003,4 hPa 0,0 l/m 0 min 0 min 0 W/m 6,4 km/h (2 Bft) 95,65 %
09.12.2021 21:16 4,1 C 3,3 C 1,1 C 96 % 1003,4 hPa 0,0 l/m 0 min 0 min 0 W/m 6,4 km/h (2 Bft) 97,87 %
09.12.2021 21:18 4,1 C 3,3 C 1,1 C 96 % 1003,4 hPa 0,0 l/m 0 min 0 min 0 W/m 9,7 km/h (2 Bft) 93,62 %
09.12.2021 21:20 4,1 C 3,3 C 1,1 C 96 % 1003,5 hPa 0,0 l/m 0 min 0 min 0 W/m 6,4 km/h (2 Bft) 95,74 %
09.12.2021 21:22 4,1 C 3,3 C 1,1 C 96 % 1003,4 hPa 0,0 l/m 0 min 0 min 0 W/m 6,4 km/h (2 Bft) 95,74 %
09.12.2021 21:24 4,1 C 3,3 C 1,1 C 96 % 1003,3 hPa 0,0 l/m 0 min 0 min 0 W/m 3,2 km/h (1 Bft) 95,74 %
09.12.2021 21:26 4,1 C 3,3 C 1,1 C 96 % 1003,3 hPa 0,0 l/m 0 min 0 min 0 W/m 6,4 km/h (2 Bft) 97,83 %
09.12.2021 21:28 4,1 C 3,3 C 1,1 C 96 % 1003,3 hPa 0,0 l/m 0 min 0 min 0 W/m 6,4 km/h (2 Bft) 95,74 %
09.12.2021 21:30 4,1 C 3,3 C 1,1 C 96 % 1003,2 hPa 0,0 l/m 0 min 0 min 0 W/m 6,4 km/h (2 Bft) 91,49 %
09.12.2021 21:32 4,1 C 3,3 C 1,1 C 96 % 1003,2 hPa 0,0 l/m 0 min 0 min 0 W/m 6,4 km/h (2 Bft) 95,74 %
09.12.2021 21:34 4,1 C 3,3 C 1,1 C 96 % 1003,2 hPa 0,0 l/m 0 min 0 min 0 W/m 6,4 km/h (2 Bft) 93,62 %
09.12.2021 21:36 4,1 C 3,3 C 1,1 C 96 % 1003,1 hPa 0,0 l/m 0 min 0 min 0 W/m 12,9 km/h (3 Bft) 95,74 %
09.12.2021 21:38 4,1 C 3,3 C 1,1 C 96 % 1003,1 hPa 0,0 l/m 0 min 0 min 0 W/m 12,9 km/h (3 Bft) 95,65 %
09.12.2021 21:40 4,1 C 3,3 C 1,1 C 96 % 1003,1 hPa 0,0 l/m 0 min 0 min 0 W/m 12,9 km/h (3 Bft) 95,74 %
09.12.2021 21:42 4,1 C 3,3 C 1,1 C 96 % 1003,1 hPa 0,0 l/m 0 min 0 min 0 W/m 12,9 km/h (3 Bft) 93,62 %
09.12.2021 21:44 4,1 C 3,3 C 1,1 C 96 % 1003,0 hPa 0,0 l/m 0 min 0 min 0 W/m 9,7 km/h (2 Bft) 91,49 %
09.12.2021 21:46 4,1 C 3,3 C 1,1 C 96 % 1003,0 hPa 0,0 l/m 0 min 0 min 0 W/m 12,9 km/h (3 Bft) 95,74 %
09.12.2021 21:48 4,1 C 3,3 C 1,1 C 96 % 1003,0 hPa 0,0 l/m 0 min 0 min 0 W/m 16,1 km/h (3 Bft) 97,87 %
09.12.2021 21:50 4,1 C 3,3 C 1,1 C 96 % 1003,0 hPa 0,0 l/m 0 min 0 min 0 W/m 6,4 km/h (2 Bft) 97,83 %
09.12.2021 21:52 4,1 C 3,3 C 1,1 C 96 % 1002,9 hPa 0,0 l/m 0 min 0 min 0 W/m 6,4 km/h (2 Bft) 95,74 %
09.12.2021 21:54 4,1 C 3,3 C 1,1 C 96 % 1002,9 hPa 0,0 l/m 0 min 0 min 0 W/m 6,4 km/h (2 Bft) 97,87 %
09.12.2021 21:56 4,1 C 3,3 C 1,1 C 96 % 1002,9 hPa 0,0 l/m 0 min 0 min 0 W/m 6,4 km/h (2 Bft) 97,87 %
09.12.2021 21:58 4,1 C 3,3 C 1,1 C 96 % 1002,8 hPa 0,0 l/m 0 min 0 min 0 W/m 6,4 km/h (2 Bft) 97,62 %
09.12.2021 22:00 4,1 C 3,3 C 1,1 C 96 % 1002,8 hPa 0,0 l/m 0 min 0 min 0 W/m 6,4 km/h (2 Bft) 95,74 %
09.12.2021 22:02 4,1 C 3,3 C 1,1 C 96 % 1002,8 hPa 0,0 l/m 0 min 0 min 0 W/m 6,4 km/h (2 Bft) 97,96 %
09.12.2021 22:04 4,1 C 3,3 C 1,1 C 96 % 1002,8 hPa 0,0 l/m 0 min 0 min 0 W/m 6,4 km/h (2 Bft) 97,96 %
09.12.2021 22:06 4,1 C 3,3 C 1,1 C 96 % 1002,8 hPa 0,0 l/m 0 min 0 min 0 W/m 12,9 km/h (3 Bft) 97,87 %
09.12.2021 22:08 4,1 C 3,9 C 1,7 C 96 % 1002,7 hPa 0,0 l/m 0 min 0 min 0 W/m 9,7 km/h (2 Bft) 97,87 %
09.12.2021 22:10 4,1 C 3,9 C 1,7 C 96 % 1002,7 hPa 0,0 l/m 0 min 0 min 0 W/m 12,9 km/h (3 Bft) 95,74 %
09.12.2021 22:12 4,1 C 3,9 C 1,7 C 96 % 1002,7 hPa 0,0 l/m 0 min 0 min 0 W/m 6,4 km/h (2 Bft) 97,83 %
09.12.2021 22:14 4,1 C 3,9 C 1,7 C 96 % 1002,6 hPa 0,0 l/m 0 min 0 min 0 W/m 6,4 km/h (2 Bft) 95,74 %
09.12.2021 22:16 4,1 C 3,3 C 1,7 C 96 % 1002,6 hPa 0,0 l/m 0 min 0 min 0 W/m 6,4 km/h (2 Bft) 97,87 %
09.12.2021 22:18 4,1 C 3,3 C 1,7 C 96 % 1002,6 hPa 0,0 l/m 0 min 0 min 0 W/m 6,4 km/h (2 Bft) 97,87 %
09.12.2021 22:20 4,1 C 3,3 C 1,7 C 96 % 1002,6 hPa 0,0 l/m 0 min 0 min 0 W/m 3,2 km/h (1 Bft) 97,87 %
09.12.2021 22:22 4,1 C 3,3 C 1,7 C 96 % 1002,6 hPa 0,0 l/m 0 min 0 min 0 W/m 6,4 km/h (2 Bft) 100,00 %
09.12.2021 22:24 4,1 C 3,9 C 1,7 C 96 % 1002,5 hPa 0,0 l/m 0 min 0 min 0 W/m 12,9 km/h (3 Bft) 97,83 %
09.12.2021 22:26 4,1 C 3,9 C 1,7 C 96 % 1002,5 hPa 0,0 l/m 0 min 0 min 0 W/m 6,4 km/h (2 Bft) 100,00 %
09.12.2021 22:28 4,1 C 3,9 C 1,7 C 96 % 1002,4 hPa 0,0 l/m 0 min 0 min 0 W/m 6,4 km/h (2 Bft) 97,87 %
09.12.2021 22:30 4,1 C 3,9 C 1,7 C 96 % 1002,4 hPa 0,0 l/m 0 min 0 min 0 W/m 6,4 km/h (2 Bft) 97,87 %
09.12.2021 22:32 4,2 C 3,9 C 1,7 C 96 % 1002,4 hPa 0,0 l/m 0 min 0 min 0 W/m 12,9 km/h (3 Bft) 100,00 %
09.12.2021 22:34 4,1 C 3,9 C 1,7 C 96 % 1002,4 hPa 0,0 l/m 0 min 0 min 0 W/m 12,9 km/h (3 Bft) 100,00 %
09.12.2021 22:36 4,1 C 3,9 C 1,7 C 96 % 1002,4 hPa 0,0 l/m 0 min 0 min 0 W/m 6,4 km/h (2 Bft) 100,00 %
09.12.2021 22:38 4,1 C 3,9 C 1,7 C 96 % 1002,3 hPa 0,0 l/m 0 min 0 min 0 W/m 12,9 km/h (3 Bft) 97,87 %
09.12.2021 22:40 4,2 C 3,9 C 1,7 C 96 % 1002,3 hPa 0,0 l/m 0 min 0 min 0 W/m 6,4 km/h (2 Bft) 100,00 %
09.12.2021 22:42 4,2 C 3,9 C 1,7 C 96 % 1002,3 hPa 0,0 l/m 0 min 0 min 0 W/m 12,9 km/h (3 Bft) 97,87 %
09.12.2021 22:44 4,2 C 3,9 C 1,7 C 96 % 1002,3 hPa 0,0 l/m 0 min 0 min 0 W/m 12,9 km/h (3 Bft) 100,00 %
09.12.2021 22:46 4,2 C 3,9 C 1,7 C 96 % 1002,2 hPa 0,0 l/m 0 min 0 min 0 W/m 6,4 km/h (2 Bft) 100,00 %
09.12.2021 22:48 4,2 C 3,9 C 1,7 C 96 % 1002,2 hPa 0,0 l/m 0 min 0 min 0 W/m 6,4 km/h (2 Bft) 100,00 %
09.12.2021 22:50 4,2 C 3,9 C 1,7 C 96 % 1002,1 hPa 0,0 l/m 0 min 0 min 0 W/m 6,4 km/h (2 Bft) 100,00 %
09.12.2021 22:52 4,2 C 3,9 C 1,7 C 96 % 1002,1 hPa 0,0 l/m 0 min 0 min 0 W/m 6,4 km/h (2 Bft) 100,00 %
09.12.2021 22:54 4,2 C 3,3 C 1,7 C 96 % 1002,0 hPa 0,0 l/m 0 min 0 min 0 W/m 12,9 km/h (3 Bft) 100,00 %
09.12.2021 22:56 4,2 C 3,3 C 1,7 C 96 % 1002,0 hPa 0,0 l/m 0 min 0 min 0 W/m 12,9 km/h (3 Bft) 97,87 %
09.12.2021 22:58 4,2 C 3,3 C 1,7 C 96 % 1001,9 hPa 0,0 l/m 0 min 0 min 0 W/m 6,4 km/h (2 Bft) 97,83 %
09.12.2021 23:00 4,2 C 3,3 C 1,7 C 96 % 1001,9 hPa 0,0 l/m 0 min 0 min 0 W/m 16,1 km/h (3 Bft) 100,00 %
09.12.2021 23:02 4,1 C 3,3 C 1,7 C 96 % 1001,8 hPa 0,0 l/m 0 min 0 min 0 W/m 6,4 km/h (2 Bft) 97,62 %
09.12.2021 23:04 4,1 C 3,3 C 1,7 C 96 % 1001,8 hPa 0,0 l/m 0 min 0 min 0 W/m 6,4 km/h (2 Bft) 100,00 %
09.12.2021 23:06 4,1 C 3,3 C 1,1 C 96 % 1001,8 hPa 0,0 l/m 0 min 0 min 0 W/m 6,4 km/h (2 Bft) 97,87 %
09.12.2021 23:08 4,1 C 3,3 C 1,1 C 96 % 1001,8 hPa 0,0 l/m 0 min 0 min 0 W/m 16,1 km/h (3 Bft) 97,87 %
09.12.2021 23:10 4,1 C 3,3 C 1,1 C 96 % 1001,7 hPa 0,0 l/m 0 min 0 min 0 W/m 12,9 km/h (3 Bft) 97,87 %
09.12.2021 23:12 4,1 C 3,3 C 1,1 C 96 % 1001,6 hPa 0,0 l/m 0 min 0 min 0 W/m 12,9 km/h (3 Bft) 95,65 %
09.12.2021 23:14 4,1 C 3,3 C 1,1 C 96 % 1001,6 hPa 0,0 l/m 0 min 0 min 0 W/m 6,4 km/h (2 Bft) 97,87 %
09.12.2021 23:16 4,0 C 2,8 C 1,1 C 96 % 1001,6 hPa 0,0 l/m 0 min 0 min 0 W/m 12,9 km/h (3 Bft) 95,74 %
09.12.2021 23:18 4,0 C 2,8 C 1,1 C 96 % 1001,6 hPa 0,0 l/m 0 min 0 min 0 W/m 9,7 km/h (2 Bft) 95,74 %
09.12.2021 23:20 3,9 C 2,8 C 1,1 C 96 % 1001,5 hPa 0,0 l/m 0 min 0 min 0 W/m 6,4 km/h (2 Bft) 95,74 %
09.12.2021 23:22 3,9 C 2,8 C 1,1 C 96 % 1001,5 hPa 0,0 l/m 0 min 0 min 0 W/m 6,4 km/h (2 Bft) 95,65 %
09.12.2021 23:24 3,8 C 2,8 C 1,1 C 96 % 1001,5 hPa 0,0 l/m 0 min 0 min 0 W/m 6,4 km/h (2 Bft) 95,74 %
09.12.2021 23:26 3,8 C 2,8 C 1,1 C 96 % 1001,4 hPa 0,0 l/m 0 min 0 min 0 W/m 6,4 km/h (2 Bft) 95,74 %
09.12.2021 23:28 3,8 C 2,8 C 1,1 C 96 % 1001,4 hPa 0,0 l/m 0 min 0 min 0 W/m 12,9 km/h (3 Bft) 93,62 %
09.12.2021 23:30 3,7 C 2,8 C 0,6 C 96 % 1001,4 hPa 0,0 l/m 0 min 0 min 0 W/m 6,4 km/h (2 Bft) 95,74 %
09.12.2021 23:32 3,7 C 2,8 C 0,6 C 96 % 1001,3 hPa 0,0 l/m 0 min 0 min 0 W/m 6,4 km/h (2 Bft) 95,74 %
09.12.2021 23:34 3,6 C 2,8 C 0,6 C 96 % 1001,3 hPa 0,0 l/m 0 min 0 min 0 W/m 9,7 km/h (2 Bft) 95,65 %
09.12.2021 23:36 3,6 C 2,8 C 0,6 C 96 % 1001,3 hPa 0,0 l/m 0 min 0 min 0 W/m 12,9 km/h (3 Bft) 93,62 %
09.12.2021 23:38 3,6 C 2,8 C 0,6 C 96 % 1001,3 hPa 0,0 l/m 0 min 0 min 0 W/m 6,4 km/h (2 Bft) 95,74 %
09.12.2021 23:40 3,5 C 2,8 C 0,6 C 96 % 1001,1 hPa 0,0 l/m 0 min 0 min 0 W/m 6,4 km/h (2 Bft) 97,87 %
09.12.2021 23:42 3,5 C 2,2 C 0,6 C 96 % 1001,1 hPa 0,0 l/m 0 min 0 min 0 W/m 6,4 km/h (2 Bft) 97,87 %
09.12.2021 23:44 3,4 C 2,2 C 0,6 C 96 % 1001,0 hPa 0,0 l/m 0 min 0 min 0 W/m 6,4 km/h (2 Bft) 97,87 %
09.12.2021 23:46 3,4 C 2,2 C 0,6 C 96 % 1001,0 hPa 0,0 l/m 0 min 0 min 0 W/m 12,9 km/h (3 Bft) 97,83 %
09.12.2021 23:48 3,3 C 2,2 C 0,6 C 96 % 1000,9 hPa 0,0 l/m 0 min 0 min 0 W/m 16,1 km/h (3 Bft) 97,87 %
09.12.2021 23:50 3,3 C 2,2 C 0,6 C 96 % 1000,9 hPa 0,0 l/m 0 min 0 min 0 W/m 16,1 km/h (3 Bft) 100,00 %
09.12.2021 23:52 3,3 C 2,2 C 0,6 C 96 % 1000,8 hPa 0,0 l/m 0 min 0 min 0 W/m 16,1 km/h (3 Bft) 97,87 %
09.12.2021 23:54 3,2 C 2,2 C 0,6 C 96 % 1000,8 hPa 0,0 l/m 0 min 0 min 0 W/m 12,9 km/h (3 Bft) 100,00 %
09.12.2021 23:56 3,2 C 2,2 C 0,6 C 96 % 1000,8 hPa 0,0 l/m 0 min 0 min 0 W/m 12,9 km/h (3 Bft) 100,00 %
09.12.2021 23:58 3,1 C 2,2 C 0,6 C 96 % 1000,8 hPa 0,0 l/m 0 min 0 min 0 W/m 12,9 km/h (3 Bft) 100,00 %
_ Min-Zeit 08:24 07:48 06:12 13:54 23:52 - - - - 05:40 15:30
Minimum _ 0,2 C -0,6 C -2,2 C 88 % 1000,8 hPa - - - - 0,0 km/h (0 Bft) 45,95 %
_ Max-Zeit 14:00 13:38 13:42 08:56 11:00 20:09 10:06 20:09 10:50 13:44 00:00
Maximum _ 4,8 C 4,4 C 2,2 C 96 % 1005,4 hPa 0,2 l/m 2 min 5 min 300 W/m 25,7 km/h
S-SO (4 Bft)
100,00 %
Durchschnitt _ 2,9 C 2,4 C 0,3 C 93 % 1003,9 hPa #0,4 l/m #40 min. #20 min. 51 W/m 9,6 km/h (2 Bft) 97,46 %
© 2021 W. Hausmann